M I D A S
Marine Information and Data Acquisition System
Tripno 1911 of the Zeeleeuw from 2010-06-30 05:02:48 to 2010-06-30 15:26:22
Back to CruiseResearch ActivitiesStationsMapUnderway DataData graphs

EquipmentUnitsComment
TimeDGPSUTC
LatitudeDGPSDM.mWGS84
LongitudeDGPSDM.mWGS84
TemperatureSBE03/SBE38deg celciusITS90
ConductivitySBE21S/mITS90
SalinitySBE21 Practical Salinity Units
ChlorophylAChelsea fluorimeterg/lCalibrated in Aceton
Missing or incorrect values are displayed as -999
Sea surface data collected by the RV Zeeleeuw from 2010-06-30 04:56:18 to 2010-06-30 15:37:12
                                                                                    Next 1000 lines
Time Latitude Longitude Temperature Conductivity Salinity ChlorophylA
2010-06-30 04:56:29 51°13.661 2°55.957 22.1121 0.08337 0.439749 -1.000568
2010-06-30 04:56:34 51°13.661 2°55.956 22.1255 0.08233 0.434068 -0.965744
2010-06-30 04:56:38 51°13.662 2°55.954 22.1339 0.08233 0.434068 -0.965744
2010-06-30 04:56:44 51°13.662 2°55.952 22.1324 0.083474 0.44031 -1.035392
2010-06-30 04:56:49 51°13.663 2°55.949 22.1283 0.082434 0.434636 -1.000568
2010-06-30 04:56:54 51°13.663 2°55.946 22.1181 0.083266 0.439187 -1.035392
2010-06-30 04:56:59 51°13.664 2°55.943 22.1227 0.083058 0.438051 -1.035392
2010-06-30 04:57:05 51°13.664 2°55.938 22.1014 0.083058 0.438051 -1.035392
2010-06-30 04:57:11 51°13.666 2°55.933 22.1184 0.08285 0.436921 -1.035392
2010-06-30 04:57:17 51°13.667 2°55.927 22.1215 0.08337 0.439769 -1.035392
2010-06-30 04:57:22 51°13.668 2°55.921 22.1238 0.082746 0.43636 -1.000568
2010-06-30 04:57:28 51°13.67 2°55.914 22.1243 0.083266 0.439207 -1.035392
2010-06-30 04:57:32 51°13.671 2°55.909 22.1315 0.08285 0.436941 -1.000568
2010-06-30 04:57:37 51°13.673 2°55.903 22.1245 0.082642 0.435812 -1.000568
2010-06-30 04:57:43 51°13.675 2°55.895 22.1304 0.082642 0.435812 -1.000568
2010-06-30 04:57:47 51°13.676 2°55.889 22.1429 0.082746 0.436373 -1.000568
2010-06-30 04:57:52 51°13.678 2°55.882 22.1283 0.08233 0.434108 -1.000568
2010-06-30 04:57:57 51°13.68 2°55.874 22.144 0.08285 0.436955 -1.035392
2010-06-30 04:58:03 51°13.682 2°55.865 22.1453 0.082018 0.432411 -1.035392
2010-06-30 04:58:08 51°13.684 2°55.857 22.1455 0.082226 0.433553 -1.000568
2010-06-30 04:58:13 51°13.686 2°55.85 22.1435 0.082226 0.433553 -1.000568
2010-06-30 04:58:17 51°13.688 2°55.844 22.1424 0.082018 0.432417 -1.035392
2010-06-30 04:58:23 51°13.691 2°55.834 22.1402 0.082538 0.435257 -1.035392
2010-06-30 04:58:28 51°13.693 2°55.826 22.1382 0.082226 0.43356 -1.000568
2010-06-30 04:58:32 51°13.695 2°55.819 22.1396 0.082018 0.43243 -1.000568
2010-06-30 04:58:37 51°13.697 2°55.811 22.1462 0.082018 0.43243 -1.000568
2010-06-30 04:58:42 51°13.7 2°55.803 22.1457 0.082226 0.433566 -0.965744
2010-06-30 04:58:48 51°13.703 2°55.793 22.1488 0.081601 0.430159 -1.000568
2010-06-30 04:58:53 51°13.705 2°55.785 22.1422 0.080873 0.426193 -1.000568
2010-06-30 04:58:57 51°13.707 2°55.778 22.1483 0.081497 0.429598 -1.000568
2010-06-30 04:59:02 51°13.709 2°55.77 22.149 0.080769 0.425632 -1.000568
2010-06-30 04:59:07 51°13.711 2°55.764 22.1402 0.080769 0.425632 -1.000568
2010-06-30 04:59:13 51°13.713 2°55.758 22.1576 0.080977 0.426767 -1.035392
2010-06-30 04:59:17 51°13.714 2°55.755 22.1708 0.079624 0.419394 -1.035392
2010-06-30 04:59:23 51°13.715 2°55.755 22.1821 0.078584 0.413727 -1.035392
2010-06-30 04:59:27 51°13.716 2°55.756 22.18 0.07848 0.413167 -1.000568
2010-06-30 04:59:33 51°13.716 2°55.759 22.1545 0.078688 0.414306 -1.000568
2010-06-30 04:59:37 51°13.717 2°55.76 22.0975 0.080561 0.424537 -1.000568
2010-06-30 04:59:42 51°13.717 2°55.762 22.091 0.080561 0.424537 -1.000568
2010-06-30 04:59:47 51°13.718 2°55.763 22.1026 0.08285 0.437055 -0.965744
2010-06-30 04:59:52 51°13.718 2°55.762 22.1214 0.08337 0.43991 -1.035392
2010-06-30 04:59:57 51°13.717 2°55.761 22.0794 0.084203 0.44446 -1.035392
2010-06-30 05:00:03 51°13.717 2°55.758 22.1283 0.083579 0.441048 -1.035392
2010-06-30 05:00:08 51°13.716 2°55.755 22.1287 0.083995 0.443309 -1.000568
2010-06-30 05:00:12 51°13.715 2°55.752 22.1311 0.083995 0.443309 -1.000568
2010-06-30 05:00:17 51°13.713 2°55.748 22.1241 0.083579 0.441021 -1.000568
2010-06-30 05:00:23 51°13.711 2°55.743 22.1153 0.083474 0.440445 -1.000568
2010-06-30 05:00:28 51°13.71 2°55.738 22.1368 0.083474 0.440438 -1.035392
2010-06-30 05:00:32 51°13.708 2°55.734 22.1513 0.08337 0.439877 -1.035392
2010-06-30 05:00:37 51°13.706 2°55.729 22.1545 0.081705 0.43078 -1.000568
2010-06-30 05:00:42 51°13.704 2°55.725 22.1501 0.081705 0.43078 -1.000568
2010-06-30 05:00:48 51°13.703 2°55.722 22.1448 0.081289 0.428516 -0.965744
2010-06-30 05:00:53 51°13.702 2°55.72 22.1584 0.080561 0.424543 -0.965744
2010-06-30 05:00:57 51°13.702 2°55.72 22.1714 0.079416 0.418305 -1.000568
2010-06-30 05:01:02 51°13.703 2°55.721 22.1748 0.079416 0.418311 -1.035392
2010-06-30 05:01:08 51°13.706 2°55.722 22.1877 0.078272 0.41209 -1.035392
2010-06-30 05:01:13 51°13.709 2°55.723 22.1936 0.078272 0.41209 -1.035392
2010-06-30 05:01:17 51°13.712 2°55.724 22.1883 0.076711 0.403605 -1.035392
2010-06-30 05:01:22 51°13.716 2°55.725 22.1819 0.077439 0.407591 -1.000568
2010-06-30 05:01:27 51°13.721 2°55.724 22.1674 0.077231 0.406478 -1.035392
2010-06-30 05:01:33 51°13.726 2°55.722 22.1795 0.080769 0.425763 -1.035392
2010-06-30 05:01:37 51°13.73 2°55.72 22.172 0.077647 0.408761 -1.000568
2010-06-30 05:01:42 51°13.734 2°55.717 22.1773 0.077647 0.408761 -1.000568
2010-06-30 05:01:47 51°13.739 2°55.713 22.1598 0.078584 0.41386 -1.000568
2010-06-30 05:01:52 51°13.744 2°55.709 22.1385 0.077647 0.408755 -1.035392
2010-06-30 05:01:57 51°13.749 2°55.704 22.1129 0.078896 0.415541 -1.035392
2010-06-30 05:02:02 51°13.754 2°55.698 22.0888 0.079 0.416101 -1.035392
2010-06-30 05:02:07 51°13.76 2°55.692 22.0746 0.079 0.416101 -1.035392
2010-06-30 05:02:12 51°13.767 2°55.687 22.0894 0.079624 0.41949 -1.000568
2010-06-30 05:02:17 51°13.773 2°55.68 22.0986 0.081393 0.429123 -1.035392
2010-06-30 05:02:21 51°13.779 2°55.675 22.0984 0.078792 0.414942 -1.035392
2010-06-30 05:02:26 51°13.785 2°55.668 22.0924 0.080873 0.426284 -1.035392
2010-06-30 05:02:31 51°13.793 2°55.662 22.0997 0.080249 0.422886 -1.035392
2010-06-30 05:02:36 51°13.8 2°55.655 22.0901 0.080249 0.422886 -1.035392
2010-06-30 05:02:41 51°13.808 2°55.649 22.0782 0.081081 0.427439 -1.000568
2010-06-30 05:02:45 51°13.815 2°55.643 22.0671 0.080561 0.424614 -1.000568
2010-06-30 05:02:50 51°13.823 2°55.637 22.0593 0.080665 0.425188 -1.035392
2010-06-30 05:02:55 51°13.831 2°55.63 22.0614 0.081497 0.429743 -1.035392
2010-06-30 05:03:00 51°13.839 2°55.623 22.0608 0.079624 0.419535 -1.035392
2010-06-30 05:03:05 51°13.847 2°55.617 22.0788 0.081914 0.432021 -1.000568
2010-06-30 05:03:09 51°13.854 2°55.611 22.0793 0.081914 0.432021 -1.000568
2010-06-30 05:03:15 51°13.864 2°55.604 22.1052 0.081601 0.430331 -1.035392
2010-06-30 05:03:19 51°13.872 2°55.599 22.1058 0.080873 0.426363 -1.000568
2010-06-30 05:03:25 51°13.882 2°55.591 22.1006 0.080457 0.424105 -1.035392
2010-06-30 05:03:29 51°13.89 2°55.585 22.1025 0.080769 0.425815 -1.035392
2010-06-30 05:03:34 51°13.899 2°55.579 22.0989 0.081289 0.428653 -1.000568
2010-06-30 05:03:39 51°13.908 2°55.572 22.1015 0.081289 0.428653 -1.000568
2010-06-30 05:03:44 51°13.917 2°55.565 22.1035 0.080769 0.425821 -0.965744
2010-06-30 05:03:49 51°13.926 2°55.558 22.1082 0.080665 0.42526 -1.000568
2010-06-30 05:03:54 51°13.935 2°55.551 22.1016 0.081081 0.427537 -1.000568
2010-06-30 05:03:59 51°13.945 2°55.545 22.1067 0.081393 0.429241 -1.035392
2010-06-30 05:04:04 51°13.954 2°55.538 22.1124 0.080977 0.426976 -1.035392
2010-06-30 05:04:09 51°13.963 2°55.531 22.117 0.080977 0.426976 -1.035392
2010-06-30 05:04:13 51°13.971 2°55.526 22.1197 0.080249 0.423003 -1.000568
2010-06-30 05:04:19 51°13.982 2°55.517 22.1174 0.081081 0.42755 -1.000568
2010-06-30 05:04:24 51°13.991 2°55.51 22.1205 0.080769 0.425854 -1.000568
2010-06-30 05:04:29 51°14 2°55.503 22.1199 0.07952 0.419051 -1.035392
2010-06-30 05:04:34 51°14.009 2°55.495 22.1201 0.081914 0.432107 -1.000568
2010-06-30 05:04:39 51°14.019 2°55.488 22.1174 0.081914 0.432107 -1.000568
2010-06-30 05:04:44 51°14.028 2°55.481 22.1178 0.081289 0.428693 -1.000568
2010-06-30 05:04:49 51°14.037 2°55.474 22.1201 0.081497 0.429835 -1.000568
2010-06-30 05:04:53 51°14.045 2°55.468 22.1097 0.079728 0.420192 -1.035392
2010-06-30 05:04:59 51°14.056 2°55.459 22.1131 0.082018 0.432682 -1.000568
2010-06-30 05:05:04 51°14.065 2°55.452 22.1231 0.08181 0.431552 -1.000568
2010-06-30 05:05:09 51°14.075 2°55.445 22.1259 0.08181 0.431552 -1.000568
2010-06-30 05:05:14 51°14.084 2°55.439 22.1281 0.081497 0.429842 -1.000568
2010-06-30 05:05:18 51°14.092 2°55.433 22.1298 0.081393 0.42928 -1.000568
2010-06-30 05:05:24 51°14.103 2°55.425 22.1345 0.07952 0.41907 -1.000568
2010-06-30 05:05:29 51°14.113 2°55.417 22.1369 0.080873 0.426448 -1.000568
2010-06-30 05:05:33 51°14.121 2°55.412 22.1387 0.080873 0.426448 -1.000568
2010-06-30 05:05:39 51°14.133 2°55.402 22.1385 0.079104 0.416802 -0.965744
2010-06-30 05:05:44 51°14.143 2°55.394 22.1346 0.080457 0.424183 -1.000568
2010-06-30 05:05:49 51°14.154 2°55.386 22.1067 0.079832 0.420785 -1.035392
2010-06-30 05:05:54 51°14.165 2°55.378 22.1101 0.081289 0.428732 -1.000568
2010-06-30 05:05:59 51°14.176 2°55.37 22.1275 0.080977 0.427028 -1.035392
2010-06-30 05:06:04 51°14.187 2°55.362 22.1257 0.080977 0.427028 -1.035392
2010-06-30 05:06:09 51°14.198 2°55.352 22.0915 0.079312 0.417955 -1.000568
2010-06-30 05:06:15 51°14.212 2°55.341 22.0953 0.078688 0.414566 -1.035392
2010-06-30 05:06:20 51°14.223 2°55.333 22.1031 0.080769 0.425912 -1.000568
2010-06-30 05:06:25 51°14.235 2°55.324 22.1165 0.081705 0.431024 -1.035392
2010-06-30 05:06:29 51°14.244 2°55.317 22.1091 0.081393 0.42932 -1.035392
2010-06-30 05:06:35 51°14.258 2°55.307 22.1166 0.080873 0.426487 -1.000568
2010-06-30 05:06:40 51°14.27 2°55.298 22.1091 0.080873 0.426487 -1.000568
2010-06-30 05:06:45 51°14.281 2°55.289 22.1046 0.078584 0.414005 -1.035392
2010-06-30 05:06:49 51°14.291 2°55.281 22.1082 0.078376 0.412878 -1.000568
2010-06-30 05:06:54 51°14.303 2°55.272 22.1184 0.081601 0.430476 -1.035392
2010-06-30 05:06:59 51°14.315 2°55.263 22.1413 0.079104 0.416846 -1.035392
2010-06-30 05:07:04 51°14.327 2°55.254 22.139 0.080249 0.4231 -1.000568
2010-06-30 05:07:09 51°14.338 2°55.244 22.1291 0.080249 0.4231 -1.000568
2010-06-30 05:07:13 51°14.348 2°55.236 22.1301 0.080353 0.423668 -1.035392
2010-06-30 05:07:19 51°14.362 2°55.223 22.1201 0.079416 0.418567 -1.000568
2010-06-30 05:07:24 51°14.373 2°55.213 22.1176 0.083579 0.441305 -1.000568
2010-06-30 05:07:29 51°14.385 2°55.203 22.1202 0.082746 0.436754 -1.000568
2010-06-30 05:07:33 51°14.394 2°55.194 22.1282 0.082746 0.436754 -1.000568
2010-06-30 05:07:38 51°14.405 2°55.184 22.1017 0.081081 0.427655 -1.035392
2010-06-30 05:07:44 51°14.418 2°55.17 22.0505 0.078688 0.414617 -1.035392
2010-06-30 05:07:49 51°14.43 2°55.16 22.0649 0.076399 0.402153 -1.000568
2010-06-30 05:07:54 51°14.443 2°55.149 22.1132 0.078896 0.415744 -1.000568
2010-06-30 05:07:58 51°14.454 2°55.141 22.0606 0.079 0.416299 -1.035392
2010-06-30 05:08:04 51°14.471 2°55.127 22.115 0.079 0.416299 -1.035392
2010-06-30 05:08:09 51°14.486 2°55.116 22.135 0.077023 0.405544 -1.035392
2010-06-30 05:08:13 51°14.498 2°55.106 22.0942 0.077751 0.409509 -1.035392
2010-06-30 05:08:19 51°14.516 2°55.089 22.0479 0.074734 0.393115 -1.000568
2010-06-30 05:08:24 51°14.532 2°55.075 22.0528 0.082746 0.436788 -1.000568
2010-06-30 05:08:29 51°14.547 2°55.06 21.9839 0.070676 0.371124 -1.000568
2010-06-30 05:08:34 51°14.563 2°55.046 22.0877 0.08566 0.452733 -1.000568
2010-06-30 05:08:38 51°14.576 2°55.033 22.0928 0.08566 0.452733 -1.000568
2010-06-30 05:08:44 51°14.595 2°55.014 22.0672 0.080665 0.425429 -1.000568
2010-06-30 05:08:49 51°14.61 2°54.997 22.0468 0.079104 0.416923 -1.035392
2010-06-30 05:08:53 51°14.622 2°54.984 22.0872 0.080145 0.422591 -1.000568
2010-06-30 05:08:59 51°14.641 2°54.965 22.0757 0.077959 0.41068 -1.035392
2010-06-30 05:09:04 51°14.657 2°54.948 22.0768 0.077959 0.41068 -1.035392
2010-06-30 05:09:09 51°14.672 2°54.931 22.0918 0.082746 0.436801 -1.035392
2010-06-30 05:09:13 51°14.685 2°54.918 22.0936 0.078792 0.415222 -1.000568
2010-06-30 05:09:19 51°14.703 2°54.897 22.0741 0.078272 0.412387 -1.000568
2010-06-30 05:09:24 51°14.718 2°54.88 22.1016 0.083995 0.443628 -1.000568
2010-06-30 05:09:29 51°14.733 2°54.862 22.0603 0.07952 0.419199 -1.000568
2010-06-30 05:09:33 51°14.746 2°54.848 22.1068 0.07952 0.419199 -1.000568
2010-06-30 05:09:38 51°14.761 2°54.83 22.0993 0.083787 0.442497 -1.000568
2010-06-30 05:09:44 51°14.779 2°54.809 22.0998 0.080561 0.424881 -1.000568
2010-06-30 05:09:49 51°14.793 2°54.791 22.0611 0.077335 0.407299 -1.035392
2010-06-30 05:09:54 51°14.808 2°54.772 22.071 0.075254 0.395984 -1.000568
2010-06-30 05:09:58 51°14.82 2°54.758 22.0829 0.080665 0.425456 -1.035392
2010-06-30 05:10:04 51°14.838 2°54.736 22.076 0.078688 0.41468 -1.000568
2010-06-30 05:10:09 51°14.853 2°54.718 22.1001 0.078688 0.41468 -1.000568
2010-06-30 05:10:13 51°14.865 2°54.704 22.1103 0.082226 0.433978 -1.000568
2010-06-30 05:10:19 51°14.883 2°54.682 22.1204 0.077335 0.407305 -1.035392
2010-06-30 05:10:24 51°14.897 2°54.663 22.1122 0.079937 0.421501 -1.035392
2010-06-30 05:10:29 51°14.911 2°54.644 22.1126 0.07515 0.395437 -1.035392
2010-06-30 05:10:35 51°14.928 2°54.619 22.0945 0.077023 0.405637 -1.000568
2010-06-30 05:10:40 51°14.941 2°54.599 22.0826 0.077023 0.405637 -1.000568
2010-06-30 05:10:45 51°14.955 2°54.579 22.0041 0.083058 0.438568 -1.000568
2010-06-30 05:10:50 51°14.969 2°54.559 21.9915 0.077231 0.406776 -1.000568
2010-06-30 05:10:55 51°14.983 2°54.542 22.017 0.082434 0.435149 -1.000568
2010-06-30 05:11:00 51°14.999 2°54.525 22.0634 0.08337 0.440254 -1.000568
2010-06-30 05:11:05 51°15.015 2°54.509 22.0599 0.081914 0.432293 -1.000568
2010-06-30 05:11:09 51°15.027 2°54.495 22.0535 0.081914 0.432293 -1.000568
2010-06-30 05:11:15 51°15.046 2°54.476 22.1081 0.076295 0.401667 -1.000568
2010-06-30 05:11:19 51°15.059 2°54.463 22.1051 0.089718 0.475051 -1.000568
2010-06-30 05:11:24 51°15.074 2°54.446 22.0925 0.076295 0.401692 -1.035392
2010-06-30 05:11:29 51°15.09 2°54.429 22.1076 0.08285 0.43745 -0.965744
2010-06-30 05:11:34 51°15.105 2°54.412 22.1103 0.08285 0.43745 -0.965744
2010-06-30 05:11:39 51°15.12 2°54.395 22.1024 0.076295 0.40171 -1.000568
2010-06-30 05:11:44 51°15.135 2°54.377 22.0753 0.078688 0.414743 -1.035392
2010-06-30 05:11:49 51°15.151 2°54.36 22.0718 0.085139 0.449995 -1.000568
2010-06-30 05:11:53 51°15.163 2°54.345 22.0724 0.075358 0.396623 -1.000568
2010-06-30 05:11:58 51°15.179 2°54.328 22.0741 0.081393 0.429517 -1.035392
2010-06-30 05:12:04 51°15.197 2°54.308 22.099 0.074838 0.393788 -1.035392
2010-06-30 05:12:09 51°15.213 2°54.291 22.0862 0.074838 0.393788 -1.035392
2010-06-30 05:12:13 51°15.226 2°54.278 22.1013 0.082954 0.438039 -1.000568
2010-06-30 05:12:18 51°15.241 2°54.261 22.1017 0.079832 0.420991 -1.000568
2010-06-30 05:12:24 51°15.26 2°54.241 22.0959 0.080041 0.422127 -1.035392
2010-06-30 05:12:29 51°15.276 2°54.224 22.101 0.081289 0.428956 -1.035392
2010-06-30 05:12:34 51°15.291 2°54.207 22.0925 0.076711 0.404 -1.035392
2010-06-30 05:12:38 51°15.304 2°54.193 22.0788 0.076711 0.404 -1.035392
2010-06-30 05:12:44 51°15.322 2°54.173 22.0911 0.077543 0.408532 -1.035392
2010-06-30 05:12:48 51°15.335 2°54.159 22.1043 0.076815 0.404572 -1.000568
2010-06-30 05:12:53 51°15.35 2°54.143 22.0949 0.076295 0.401741 -0.965744
2010-06-30 05:12:59 51°15.369 2°54.122 22.0868 0.081601 0.43068 -1.035392
2010-06-30 05:13:04 51°15.384 2°54.105 22.1168 0.081601 0.43068 -1.035392
2010-06-30 05:13:09 51°15.4 2°54.089 22.0912 0.081914 0.432392 -1.035392
2010-06-30 05:13:14 51°15.415 2°54.072 22.0988 0.086388 0.456884 -1.000568
2010-06-30 05:13:18 51°15.428 2°54.058 22.0798 0.08181 0.43183 -1.000568
2010-06-30 05:13:24 51°15.446 2°54.038 22.1041 0.076503 0.402886 -1.000568
2010-06-30 05:13:29 51°15.462 2°54.021 22.1051 0.078168 0.411965 -1.000568
2010-06-30 05:13:33 51°15.474 2°54.007 22.0794 0.077751 0.409703 -1.000568
2010-06-30 05:13:39 51°15.492 2°53.986 22.102 0.077751 0.409703 -1.000568
2010-06-30 05:13:44 51°15.508 2°53.969 22.0927 0.081185 0.428427 -1.035392
2010-06-30 05:13:49 51°15.523 2°53.951 22.1116 0.07848 0.413685 -1.035392
2010-06-30 05:13:53 51°15.535 2°53.937 22.1235 0.08566 0.452914 -1.000568
2010-06-30 05:13:59 51°15.553 2°53.917 22.0984 0.077855 0.410277 -1.000568
2010-06-30 05:14:04 51°15.568 2°53.898 22.1266 0.081393 0.42959 -1.000568
2010-06-30 05:14:09 51°15.583 2°53.88 22.0851 0.081393 0.42959 -1.000568
2010-06-30 05:14:13 51°15.594 2°53.864 22.1333 0.076295 0.401796 -1.035392
2010-06-30 05:14:18 51°15.609 2°53.846 22.092 0.080041 0.422204 -1.000568
2010-06-30 05:14:24 51°15.626 2°53.822 22.1108 0.075358 0.396714 -1.035392
2010-06-30 05:14:29 51°15.64 2°53.803 22.0848 0.078272 0.41257 -1.000568
2010-06-30 05:14:34 51°15.654 2°53.783 22.1144 0.080041 0.422217 -1.000568
2010-06-30 05:14:38 51°15.666 2°53.768 22.1057 0.080041 0.422217 -1.000568
2010-06-30 05:14:44 51°15.683 2°53.744 22.1026 0.076503 0.402941 -1.035392
2010-06-30 05:14:49 51°15.696 2°53.724 22.0941 0.080561 0.425063 -1.000568
2010-06-30 05:14:53 51°15.707 2°53.708 22.0902 0.080145 0.422798 -1.035392
2010-06-30 05:14:59 51°15.724 2°53.685 22.0915 0.07952 0.419391 -1.000568
2010-06-30 05:15:04 51°15.738 2°53.665 22.1032 0.07952 0.419391 -1.000568
2010-06-30 05:15:09 51°15.752 2°53.645 22.0855 0.085556 0.452393 -1.035392
2010-06-30 05:15:14 51°15.766 2°53.625 22.1078 0.07848 0.413723 -1.000568
2010-06-30 05:15:18 51°15.778 2°53.61 22.1044 0.083058 0.438729 -1.000568
2010-06-30 05:15:24 51°15.795 2°53.586 22.1146 0.081185 0.428492 -1.000568
2010-06-30 05:15:29 51°15.809 2°53.567 22.1079 0.078064 0.411467 -1.000568
2010-06-30 05:15:33 51°15.82 2°53.551 22.1151 0.080249 0.423385 -1.035392
2010-06-30 05:15:39 51°15.837 2°53.527 22.1044 0.080249 0.423385 -1.035392
2010-06-30 05:15:44 51°15.852 2°53.508 22.1179 0.080873 0.426814 -1.000568
2010-06-30 05:15:49 51°15.866 2°53.488 22.087 0.083579 0.441596 -1.035392
2010-06-30 05:15:53 51°15.877 2°53.472 22.0765 0.077231 0.406951 -1.000568
2010-06-30 05:15:59 51°15.895 2°53.45 22.0349 0.081081 0.42795 -1.035392
2010-06-30 05:16:04 51°15.91 2°53.432 22.0561 0.081393 0.429656 -1.000568
2010-06-30 05:16:09 51°15.925 2°53.414 22.0924 0.081393 0.429656 -1.000568
2010-06-30 05:16:13 51°15.938 2°53.401 22.0828 0.082746 0.437056 -1.035392
2010-06-30 05:16:18 51°15.954 2°53.384 22.0078 0.081497 0.430231 -1.000568
2010-06-30 05:16:24 51°15.974 2°53.367 22.0609 0.086909 0.459849 -1.035392
2010-06-30 05:16:29 51°15.991 2°53.354 22.0768 0.078064 0.411511 -1.035392
2010-06-30 05:16:33 51°16.005 2°53.344 22.0758 0.085556 0.452448 -1.035392
2010-06-30 05:16:38 51°16.023 2°53.332 22.0789 0.085556 0.452448 -1.035392
2010-06-30 05:16:44 51°16.044 2°53.32 22.0899 0.085972 0.454743 -1.000568
2010-06-30 05:16:49 51°16.062 2°53.309 22.0906 0.084931 0.449049 -1.000568
2010-06-30 05:16:53 51°16.077 2°53.302 22.1138 0.088469 0.468449 -1.000568
2010-06-30 05:16:58 51°16.095 2°53.293 22.0795 0.08337 0.440518 -1.000568
2010-06-30 05:17:04 51°16.118 2°53.283 22.1048 0.08337 0.440518 -1.000568
2010-06-30 05:17:09 51°16.136 2°53.275 22.0827 0.086284 0.456468 -1.000568
2010-06-30 05:17:14 51°16.155 2°53.268 22.1193 0.078688 0.414953 -1.000568
2010-06-30 05:17:18 51°16.17 2°53.262 22.1066 0.084619 0.44736 -0.965744
2010-06-30 05:17:24 51°16.192 2°53.252 22.1113 0.082954 0.438268 -1.000568
2010-06-30 05:17:29 51°16.211 2°53.245 22.1113 0.075046 0.395125 -1.000568
2010-06-30 05:17:33 51°16.226 2°53.238 21.9632 0.081185 0.428591 -1.000568
2010-06-30 05:17:39 51°16.249 2°53.23 21.9852 0.081185 0.428591 -1.000568
2010-06-30 05:17:44 51°16.267 2°53.222 22.0594 0.079416 0.418939 -1.000568
2010-06-30 05:17:49 51°16.286 2°53.214 21.9926 0.079624 0.420081 -1.035392
2010-06-30 05:17:54 51°16.305 2°53.207 21.9985 0.075774 0.3991 -0.965744
2010-06-30 05:17:59 51°16.323 2°53.198 22.0023 0.081081 0.428042 -1.035392
2010-06-30 05:18:04 51°16.342 2°53.19 22.0082 0.078376 0.41327 -1.035392
2010-06-30 05:18:09 51°16.36 2°53.181 22.011 0.078376 0.41327 -1.035392
2010-06-30 05:18:13 51°16.375 2°53.175 22.0173 0.082226 0.434305 -1.000568
2010-06-30 05:18:19 51°16.398 2°53.165 22.0197 0.084723 0.447971 -1.035392
2010-06-30 05:18:24 51°16.416 2°53.156 22.0219 0.07952 0.419526 -1.000568
2010-06-30 05:18:29 51°16.435 2°53.148 22.0224 0.077023 0.405917 -1.035392
2010-06-30 05:18:33 51°16.449 2°53.141 22.0251 0.077023 0.405917 -1.035392
2010-06-30 05:18:38 51°16.468 2°53.133 22.0269 0.080041 0.422373 -1.000568
2010-06-30 05:18:44 51°16.49 2°53.123 22.0283 0.079104 0.417262 -1.000568
2010-06-30 05:18:49 51°16.509 2°53.115 22.0299 0.079728 0.420675 -1.035392
2010-06-30 05:18:53 51°16.524 2°53.108 22.0292 0.075046 0.395167 -1.000568
2010-06-30 05:18:58 51°16.542 2°53.1 22.0307 0.07567 0.39857 -1.035392
2010-06-30 05:19:04 51°16.565 2°53.091 22.0309 0.07567 0.39857 -1.035392
2010-06-30 05:19:09 51°16.584 2°53.083 22.0341 0.073902 0.388956 -1.000568
2010-06-30 05:19:14 51°16.602 2°53.075 22.0343 0.075358 0.396883 -1.000568
2010-06-30 05:19:18 51°16.617 2°53.069 22.0373 0.082954 0.438335 -1.035392
2010-06-30 05:19:24 51°16.639 2°53.059 22.0381 0.079624 0.420146 -1.000568
2010-06-30 05:19:29 51°16.658 2°53.05 22.0363 0.074734 0.393499 -1.000568
2010-06-30 05:19:34 51°16.676 2°53.041 22.0417 0.073589 0.387283 -1.000568
2010-06-30 05:19:38 51°16.691 2°53.034 22.0406 0.073589 0.387283 -1.000568
2010-06-30 05:19:44 51°16.713 2°53.023 22.0425 0.074526 0.39238 -1.035392
2010-06-30 05:19:49 51°16.731 2°53.014 22.044 0.075462 0.397474 -1.000568
2010-06-30 05:19:53 51°16.746 2°53.006 22.0452 0.07026 0.369219 -1.000568
2010-06-30 05:19:59 51°16.768 2°52.996 22.0451 0.08285 0.437793 -1.000568
2010-06-30 05:20:04 51°16.786 2°52.987 22.0461 0.08285 0.437793 -1.000568
2010-06-30 05:20:09 51°16.805 2°52.979 22.0497 0.080353 0.424148 -1.000568
2010-06-30 05:20:14 51°16.823 2°52.97 22.0515 0.080977 0.427552 -0.965744
2010-06-30 05:20:18 51°16.838 2°52.964 22.0535 0.075566 0.398046 -0.965744
2010-06-30 05:20:24 51°16.859 2°52.953 22.0535 0.076919 0.405424 -1.035392
2010-06-30 05:20:29 51°16.877 2°52.944 22.0542 0.074734 0.393529 -1.000568
2010-06-30 05:20:33 51°16.891 2°52.936 22.0513 0.074734 0.393529 -1.000568
2010-06-30 05:20:39 51°16.913 2°52.925 22.0578 0.074942 0.394668 -1.035392
2010-06-30 05:20:44 51°16.931 2°52.915 22.0595 0.076295 0.40203 -1.035392
2010-06-30 05:20:49 51°16.949 2°52.905 22.0605 0.076815 0.404864 -1.000568
2010-06-30 05:20:53 51°16.963 2°52.897 22.0614 0.077751 0.409986 -1.000568
2010-06-30 05:20:58 51°16.981 2°52.886 22.0632 0.085452 0.452079 -1.000568
2010-06-30 05:21:04 51°17.003 2°52.873 22.06 0.077439 0.408291 -1.035392
2010-06-30 05:21:09 51°17.021 2°52.862 22.0639 0.077439 0.408291 -1.035392
2010-06-30 05:21:13 51°17.035 2°52.853 22.0606 0.075774 0.399222 -1.000568
2010-06-30 05:21:19 51°17.057 2°52.839 22.0662 0.076711 0.404322 -1.035392
2010-06-30 05:21:24 51°17.075 2°52.828 22.0592 0.081497 0.430448 -1.000568
2010-06-30 05:21:29 51°17.093 2°52.816 22.0674 0.073485 0.386783 -1.000568
2010-06-30 05:21:34 51°17.111 2°52.804 22.071 0.072653 0.382254 -1.000568
2010-06-30 05:21:38 51°17.125 2°52.795 22.0787 0.072653 0.382254 -1.000568
2010-06-30 05:21:44 51°17.146 2°52.781 22.0665 0.080249 0.423632 -1.035392
2010-06-30 05:21:49 51°17.164 2°52.767 22.081 0.074214 0.390754 -1.035392
2010-06-30 05:21:53 51°17.178 2°52.758 22.0708 0.074318 0.391314 -1.000568
2010-06-30 05:21:59 51°17.198 2°52.741 22.0822 0.075046 0.395288 -1.000568
2010-06-30 05:22:04 51°17.215 2°52.727 22.0755 0.073797 0.388497 -1.000568
2010-06-30 05:22:09 51°17.232 2°52.713 22.0828 0.073797 0.388497 -1.000568
2010-06-30 05:22:14 51°17.249 2°52.699 22.0819 0.077751 0.41003 -1.000568
2010-06-30 05:22:18 51°17.262 2°52.687 22.0851 0.074214 0.390766 -1.035392
2010-06-30 05:22:24 51°17.282 2°52.669 22.0783 0.079728 0.42083 -1.035392
2010-06-30 05:22:29 51°17.298 2°52.654 22.0829 0.08337 0.440735 -1.035392
2010-06-30 05:22:33 51°17.312 2°52.641 22.0833 0.08337 0.440735 -1.035392
2010-06-30 05:22:39 51°17.331 2°52.623 22.0834 0.081289 0.429357 -1.035392
2010-06-30 05:22:44 51°17.348 2°52.608 22.0855 0.072757 0.382861 -1.035392
2010-06-30 05:22:49 51°17.364 2°52.593 22.0924 0.073902 0.389081 -1.000568
2010-06-30 05:22:53 51°17.377 2°52.58 22.0935 0.077647 0.409481 -1.000568
2010-06-30 05:22:58 51°17.394 2°52.564 22.0924 0.070572 0.371007 -1.035392
2010-06-30 05:23:04 51°17.413 2°52.545 22.0917 0.079416 0.419138 -1.000568
2010-06-30 05:23:09 51°17.429 2°52.529 22.0939 0.079416 0.419138 -1.000568
2010-06-30 05:23:13 51°17.442 2°52.516 22.0941 0.07567 0.398716 -1.035392
2010-06-30 05:23:18 51°17.457 2°52.499 22.1002 0.072653 0.382307 -1.000568
2010-06-30 05:23:24 51°17.477 2°52.479 22.0946 0.075878 0.399856 -1.035392
2010-06-30 05:23:29 51°17.492 2°52.463 22.0978 0.0713 0.374975 -1.000568
2010-06-30 05:23:34 51°17.508 2°52.446 22.1006 0.076711 0.404396 -1.000568
2010-06-30 05:23:38 51°17.521 2°52.433 22.1021 0.076711 0.404396 -1.000568
2010-06-30 05:23:44 51°17.54 2°52.414 22.1023 0.077751 0.410061 -1.035392
2010-06-30 05:23:49 51°17.556 2°52.398 22.1047 0.078272 0.412905 -1.000568
2010-06-30 05:23:53 51°17.569 2°52.385 22.0913 0.079832 0.421437 -1.000568
2010-06-30 05:23:58 51°17.585 2°52.368 22.085 0.083683 0.442491 -1.000568
2010-06-30 05:24:04 51°17.604 2°52.349 22.0945 0.083683 0.442491 -1.000568
2010-06-30 05:24:09 51°17.62 2°52.333 22.0924 0.082226 0.434525 -1.000568
2010-06-30 05:24:14 51°17.636 2°52.317 22.1004 0.080457 0.42486 -1.000568
2010-06-30 05:24:18 51°17.649 2°52.304 22.0981 0.082122 0.433955 -1.000568
2010-06-30 05:24:24 51°17.667 2°52.283 22.1024 0.078896 0.41635 -1.000568
2010-06-30 05:24:29 51°17.683 2°52.266 22.1068 0.073485 0.386871 -1.035392
2010-06-30 05:24:33 51°17.695 2°52.252 22.117 0.076607 0.403848 -1.000568
2010-06-30 05:24:39 51°17.714 2°52.231 22.1183 0.076607 0.403848 -1.000568
2010-06-30 05:24:44 51°17.73 2°52.214 22.1181 0.081081 0.428285 -1.035392
2010-06-30 05:24:49 51°17.745 2°52.197 22.1226 0.077751 0.410099 -1.035392
2010-06-30 05:24:53 51°17.758 2°52.184 22.1212 0.079416 0.41919 -1.000568
2010-06-30 05:24:59 51°17.776 2°52.162 22.1224 0.077023 0.40614 -1.035392
2010-06-30 05:25:04 51°17.792 2°52.145 22.122 0.079624 0.420326 -1.000568
2010-06-30 05:25:09 51°17.808 2°52.128 22.1264 0.079624 0.420326 -1.000568
2010-06-30 05:25:13 51°17.82 2°52.114 22.1254 0.072965 0.38405 -1.000568
2010-06-30 05:25:18 51°17.836 2°52.097 22.1001 0.083683 0.442518 -1.000568
2010-06-30 05:25:24 51°17.854 2°52.076 22.1409 0.080145 0.423161 -1.035392
2010-06-30 05:25:29 51°17.87 2°52.059 22.1512 0.079624 0.420326 -1.000568
2010-06-30 05:25:34 51°17.886 2°52.042 22.146 0.079624 0.420326 -1.000568
2010-06-30 05:25:38 51°17.898 2°52.028 22.147 0.083787 0.443088 -1.035392
2010-06-30 05:25:44 51°17.917 2°52.008 22.1457 0.080457 0.424867 -1.035392
2010-06-30 05:25:49 51°17.932 2°51.99 22.1515 0.076607 0.40386 -0.965744
2010-06-30 05:25:53 51°17.945 2°51.977 22.1473 0.079312 0.418622 -1.035392
2010-06-30 05:25:58 51°17.96 2°51.96 22.1473 0.07515 0.395933 -1.035392
2010-06-30 05:26:04 51°17.979 2°51.939 22.1472 0.07515 0.395933 -1.035392
2010-06-30 05:26:09 51°17.994 2°51.922 22.1496 0.071717 0.377268 -1.035392
2010-06-30 05:26:14 51°18.01 2°51.905 22.1498 0.082954 0.438544 -0.965744
2010-06-30 05:26:18 51°18.022 2°51.892 22.1501 0.079104 0.417486 -1.000568
2010-06-30 05:26:24 51°18.041 2°51.871 22.1512 0.075046 0.395361 -1.035392
2010-06-30 05:26:29 51°18.056 2°51.854 22.1498 0.074838 0.39424 -1.000568
2010-06-30 05:26:34 51°18.072 2°51.837 22.1336 0.077751 0.410112 -1.000568
2010-06-30 05:26:38 51°18.084 2°51.823 22.099 0.077751 0.410112 -1.000568
2010-06-30 05:26:44 51°18.103 2°51.803 22.1001 0.07515 0.395933 -1.035392
2010-06-30 05:26:49 51°18.119 2°51.786 22.106 0.074318 0.391404 -1.000568
2010-06-30 05:26:53 51°18.131 2°51.772 22.1199 0.074214 0.390844 -1.035392
2010-06-30 05:26:59 51°18.15 2°51.752 22.1216 0.079416 0.419196 -1.000568
2010-06-30 05:27:04 51°18.165 2°51.735 22.1218 0.076919 0.405573 -0.965744
2010-06-30 05:27:09 51°18.181 2°51.717 22.1191 0.076919 0.405573 -0.965744
2010-06-30 05:27:13 51°18.193 2°51.703 22.1311 0.076503 0.403305 -0.965744
2010-06-30 05:27:19 51°18.213 2°51.684 22.124 0.081914 0.432837 -1.000568
2010-06-30 05:27:24 51°18.228 2°51.667 22.124 0.079416 0.41919 -1.000568
2010-06-30 05:27:29 51°18.244 2°51.65 22.1253 0.07796 0.411247 -1.000568
2010-06-30 05:27:33 51°18.257 2°51.637 22.1289 0.07796 0.411247 -1.000568
2010-06-30 05:27:38 51°18.273 2°51.62 22.1287 0.079104 0.417492 -1.035392
2010-06-30 05:27:44 51°18.291 2°51.599 22.1291 0.079 0.416924 -1.035392
2010-06-30 05:27:49 51°18.307 2°51.582 22.1333 0.077439 0.408409 -1.035392
2010-06-30 05:27:53 51°18.319 2°51.568 22.136 0.074838 0.39424 -1.000568
2010-06-30 05:27:58 51°18.335 2°51.551 22.136 0.075566 0.398205 -1.035392
2010-06-30 05:28:04 51°18.354 2°51.531 22.1379 0.07411 0.390272 -1.000568
2010-06-30 05:28:09 51°18.369 2°51.513 22.1406 0.07411 0.390272 -1.000568
2010-06-30 05:28:13 51°18.381 2°51.5 22.1379 0.07411 0.390278 -1.000568
2010-06-30 05:28:19 51°18.4 2°51.48 22.1423 0.080769 0.426579 -1.000568
2010-06-30 05:28:24 51°18.416 2°51.463 22.1421 0.076607 0.40386 -1.035392
2010-06-30 05:28:29 51°18.432 2°51.446 22.1623 0.075254 0.396493 -1.035392
2010-06-30 05:28:34 51°18.447 2°51.429 22.0262 0.078272 0.412943 -1.035392
2010-06-30 05:28:38 51°18.46 2°51.416 21.6591 0.078272 0.412943 -1.035392
2010-06-30 05:28:44 51°18.479 2°51.395 21.6884 0.078376 0.413511 -1.000568
2010-06-30 05:28:49 51°18.495 2°51.378 21.684 0.076295 0.402159 -1.035392
2010-06-30 05:28:53 51°18.507 2°51.365 21.725 0.079624 0.42032 -1.000568
2010-06-30 05:28:59 51°18.526 2°51.344 21.7083 0.073381 0.386312 -1.000568
2010-06-30 05:29:04 51°18.541 2°51.328 21.7383 0.073381 0.386312 -1.000568
2010-06-30 05:29:09 51°18.557 2°51.31 21.7487 0.073277 0.38574 -1.000568
2010-06-30 05:29:13 51°18.57 2°51.297 21.7628 0.075878 0.399892 -1.000568
2010-06-30 05:29:18 51°18.585 2°51.28 21.7265 0.074526 0.392524 -1.035392
2010-06-30 05:29:24 51°18.604 2°51.26 21.8089 0.075254 0.396493 -1.035392
2010-06-30 05:29:29 51°18.619 2°51.243 21.7975 0.078376 0.413504 -1.035392
2010-06-30 05:29:33 51°18.632 2°51.23 21.8169 0.078376 0.413504 -1.035392
2010-06-30 05:29:39 51°18.651 2°51.209 21.7641 0.076815 0.405 -1.035392
2010-06-30 05:29:44 51°18.667 2°51.192 21.7958 0.076711 0.404433 -1.000568
2010-06-30 05:29:49 51°18.682 2°51.176 21.7922 0.080977 0.427716 -1.035392
2010-06-30 05:29:53 51°18.695 2°51.162 21.8426 0.074942 0.394794 -1.000568
2010-06-30 05:29:58 51°18.711 2°51.146 21.8376 0.079728 0.420888 -1.000568
2010-06-30 05:30:04 51°18.73 2°51.126 21.7685 0.082642 0.436822 -1.000568
2010-06-30 05:30:09 51°18.746 2°51.11 21.7747 0.082642 0.436822 -1.000568
2010-06-30 05:30:13 51°18.758 2°51.096 21.8009 0.076711 0.404433 -1.000568
2010-06-30 05:30:19 51°18.777 2°51.076 21.7393 0.078376 0.413504 -1.000568
2010-06-30 05:30:24 51°18.792 2°51.059 21.8097 0.071925 0.378398 -1.035392
2010-06-30 05:30:29 51°18.808 2°51.042 21.7519 0.070468 0.370488 -1.000568
2010-06-30 05:30:34 51°18.823 2°51.025 21.807 0.074526 0.39253 -1.000568
2010-06-30 05:30:38 51°18.836 2°51.011 21.7891 0.074526 0.39253 -1.000568
2010-06-30 05:30:44 51°18.854 2°50.99 21.7969 0.07848 0.414072 -1.000568
2010-06-30 05:30:49 51°18.869 2°50.972 21.8079 0.076087 0.401038 -1.035392
2010-06-30 05:30:53 51°18.881 2°50.959 21.8296 0.074318 0.39141 -1.035392
2010-06-30 05:30:59 51°18.9 2°50.938 21.8205 0.080873 0.427154 -1.000568
2010-06-30 05:31:04 51°18.915 2°50.921 21.8559 0.080873 0.427154 -1.000568
2010-06-30 05:31:09 51°18.931 2°50.904 21.7844 0.081289 0.429436 -1.000568
2010-06-30 05:31:14 51°18.946 2°50.887 21.7998 0.072965 0.384056 -1.000568
2010-06-30 05:31:18 51°18.959 2°50.873 21.8058 0.074942 0.394806 -1.035392
2010-06-30 05:31:24 51°18.977 2°50.853 21.8183 0.078064 0.411814 -1.000568
2010-06-30 05:31:29 51°18.993 2°50.836 21.7914 0.074006 0.389712 -1.035392
2010-06-30 05:31:33 51°19.005 2°50.822 21.8019 0.075566 0.398211 -1.000568
2010-06-30 05:31:39 51°19.024 2°50.802 21.8109 0.075566 0.398211 -1.000568
2010-06-30 05:31:44 51°19.04 2°50.785 21.7647 0.081289 0.42943 -0.965744
2010-06-30 05:31:49 51°19.055 2°50.767 21.7948 0.074526 0.392548 -1.000568
2010-06-30 05:31:53 51°19.068 2°50.754 21.8022 0.074838 0.394246 -1.000568
2010-06-30 05:31:59 51°19.086 2°50.733 21.8111 0.080769 0.426592 -1.000568
2010-06-30 05:32:04 51°19.102 2°50.716 21.8213 0.076295 0.402184 -1.000568
2010-06-30 05:32:09 51°19.117 2°50.698 21.7942 0.076295 0.402184 -1.000568
2010-06-30 05:32:13 51°19.13 2°50.685 21.7894 0.072653 0.382371 -1.000568
2010-06-30 05:32:18 51°19.145 2°50.667 21.8131 0.075774 0.399344 -1.000568
2010-06-30 05:32:24 51°19.164 2°50.647 21.8423 0.074214 0.390856 -1.000568
2010-06-30 05:32:29 51°19.179 2°50.629 21.8461 0.074214 0.390868 -1.000568
2010-06-30 05:32:34 51°19.194 2°50.612 21.8128 0.078064 0.411833 -1.000568
2010-06-30 05:32:38 51°19.207 2°50.598 21.8283 0.078064 0.411833 -1.000568
2010-06-30 05:32:44 51°19.225 2°50.578 21.8243 0.08566 0.453394 -1.000568
2010-06-30 05:32:49 51°19.241 2°50.56 21.831 0.074526 0.392566 -1.035392
2010-06-30 05:32:53 51°19.253 2°50.547 21.8457 0.076711 0.404476 -1.000568
2010-06-30 05:32:59 51°19.272 2°50.526 21.8099 0.078688 0.415259 -1.000568
2010-06-30 05:33:04 51°19.287 2°50.509 21.8366 0.078688 0.415259 -1.000568
2010-06-30 05:33:09 51°19.303 2°50.492 21.8343 0.073693 0.388044 -1.000568
2010-06-30 05:33:14 51°19.318 2°50.475 21.8109 0.073173 0.385228 -1.000568
2010-06-30 05:33:18 51°19.331 2°50.461 21.8584 0.079728 0.42094 -1.000568
2010-06-30 05:33:24 51°19.349 2°50.44 21.8106 0.072757 0.382966 -1.035392
2010-06-30 05:33:29 51°19.365 2°50.423 21.8498 0.077231 0.407319 -1.035392
2010-06-30 05:33:33 51°19.377 2°50.409 21.8315 0.077127 0.406751 -1.035392
2010-06-30 05:33:39 51°19.395 2°50.388 21.8353 0.077127 0.406751 -1.035392
2010-06-30 05:33:44 51°19.411 2°50.371 21.821 0.075462 0.397681 -1.000568
2010-06-30 05:33:49 51°19.426 2°50.354 21.8453 0.074526 0.39259 -1.000568
2010-06-30 05:33:53 51°19.438 2°50.34 21.8333 0.076919 0.405629 -1.035392
2010-06-30 05:33:59 51°19.457 2°50.319 21.8356 0.073069 0.384674 -1.000568
2010-06-30 05:34:04 51°19.473 2°50.302 21.8261 0.073902 0.3892 -1.000568
2010-06-30 05:34:09 51°19.488 2°50.285 21.8287 0.073902 0.3892 -1.000568
2010-06-30 05:34:13 51°19.5 2°50.271 21.8534 0.078688 0.415284 -1.035392
2010-06-30 05:34:19 51°19.519 2°50.25 21.8614 0.074006 0.389772 -1.035392
2010-06-30 05:34:24 51°19.534 2°50.232 21.87 0.075983 0.400526 -1.000568
2010-06-30 05:34:29 51°19.55 2°50.215 21.8547 0.076815 0.405068 -1.000568
2010-06-30 05:34:34 51°19.565 2°50.198 21.8869 0.076815 0.405068 -1.000568
2010-06-30 05:34:38 51°19.578 2°50.184 21.8517 0.074422 0.392036 -1.000568
2010-06-30 05:34:44 51°19.596 2°50.163 21.902 0.078792 0.415858 -1.000568
2010-06-30 05:34:49 51°19.612 2°50.145 21.8663 0.070988 0.37339 -1.000568
2010-06-30 05:34:53 51°19.624 2°50.131 21.8412 0.078792 0.415865 -1.000568
2010-06-30 05:34:58 51°19.64 2°50.114 21.8838 0.078064 0.41189 -1.035392
2010-06-30 05:35:04 51°19.658 2°50.093 21.85 0.078064 0.41189 -1.035392
2010-06-30 05:35:09 51°19.674 2°50.076 21.8908 0.081081 0.428384 -1.000568
2010-06-30 05:35:14 51°19.689 2°50.059 21.8171 0.077231 0.407369 -1.000568
2010-06-30 05:35:18 51°19.702 2°50.045 21.8903 0.074318 0.391488 -1.035392
2010-06-30 05:35:24 51°19.721 2°50.024 21.8497 0.074422 0.39206 -1.000568
2010-06-30 05:35:29 51°19.736 2°50.007 21.8429 0.073693 0.388104 -1.000568
2010-06-30 05:35:33 51°19.749 2°49.993 21.9094 0.07796 0.411347 -1.000568
2010-06-30 05:35:39 51°19.767 2°49.972 21.8487 0.07796 0.411347 -1.000568
2010-06-30 05:35:44 51°19.782 2°49.954 21.9108 0.076607 0.403971 -1.000568
2010-06-30 05:35:49 51°19.798 2°49.937 21.8751 0.074422 0.392078 -0.965744
2010-06-30 05:35:54 51°19.814 2°49.92 21.8596 0.082746 0.437512 -1.000568
2010-06-30 05:35:59 51°19.829 2°49.903 21.8754 0.077231 0.407381 -1.000568
2010-06-30 05:36:04 51°19.845 2°49.885 21.8654 0.077231 0.407387 -1.035392
2010-06-30 05:36:09 51°19.86 2°49.868 21.8983 0.077231 0.407387 -1.035392
2010-06-30 05:36:13 51°19.873 2°49.854 21.8831 0.071717 0.377378 -1.000568
2010-06-30 05:36:19 51°19.892 2°49.834 21.895 0.077335 0.407948 -1.000568
2010-06-30 05:36:24 51°19.907 2°49.817 21.8914 0.077543 0.409096 -1.000568
2010-06-30 05:36:29 51°19.923 2°49.8 21.8596 0.080145 0.423298 -1.000568
2010-06-30 05:36:33 51°19.936 2°49.786 21.9394 0.080145 0.423298 -1.000568
2010-06-30 05:36:38 51°19.951 2°49.769 21.8818 0.078272 0.41307 -1.000568
2010-06-30 05:36:44 51°19.97 2°49.749 21.8754 0.077439 0.408535 -1.000568
2010-06-30 05:36:49 51°19.986 2°49.732 21.9153 0.073902 0.389265 -1.000568
2010-06-30 05:36:53 51°19.999 2°49.718 21.8813 0.072341 0.380781 -1.000568
2010-06-30 05:36:58 51°20.015 2°49.702 21.921 0.078688 0.415354 -1.000568
2010-06-30 05:37:04 51°20.034 2°49.681 21.8776 0.077231 0.407418 -1.000568
2010-06-30 05:37:09 51°20.05 2°49.665 21.8946 0.077231 0.407418 -1.000568
2010-06-30 05:37:13 51°20.062 2°49.651 21.8727 0.075358 0.397206 -1.000568
2010-06-30 05:37:19 51°20.082 2°49.631 21.9194 0.078376 0.413663 -1.000568
2010-06-30 05:37:24 51°20.097 2°49.614 21.8652 0.069532 0.365551 -1.035392
2010-06-30 05:37:29 51°20.113 2°49.597 21.9449 0.070468 0.370641 -1.000568
2010-06-30 05:37:34 51°20.129 2°49.58 21.8676 0.077647 0.409695 -1.035392
2010-06-30 05:37:38 51°20.142 2°49.567 21.9035 0.077647 0.409695 -1.035392
2010-06-30 05:37:44 51°20.161 2°49.547 21.8783 0.074422 0.392132 -1.000568
2010-06-30 05:37:49 51°20.176 2°49.53 21.9075 0.074734 0.393831 -1.035392
2010-06-30 05:37:53 51°20.189 2°49.517 21.9138 0.072653 0.382512 -1.035392
2010-06-30 05:37:59 51°20.208 2°49.496 21.9084 0.078064 0.411985 -1.000568
2010-06-30 05:38:04 51°20.223 2°49.479 21.9208 0.079 0.417097 -1.000568
2010-06-30 05:38:09 51°20.239 2°49.462 21.8982 0.079 0.417097 -1.000568
2010-06-30 05:38:13 51°20.252 2°49.449 21.9129 0.078064 0.411985 -1.000568
2010-06-30 05:38:18 51°20.267 2°49.432 21.8902 0.074006 0.389879 -1.035392
2010-06-30 05:38:24 51°20.286 2°49.412 21.913 0.085764 0.454133 -1.035392
2010-06-30 05:38:29 51°20.302 2°49.395 21.901 0.083162 0.439879 -1.035392
2010-06-30 05:38:33 51°20.314 2°49.382 21.8925 0.083162 0.439879 -1.035392
2010-06-30 05:38:39 51°20.333 2°49.361 21.8938 0.080769 0.426776 -1.035392
2010-06-30 05:38:44 51°20.348 2°49.344 21.9297 0.080145 0.423369 -1.035392
2010-06-30 05:38:49 51°20.364 2°49.327 21.8863 0.072861 0.383672 -1.000568
2010-06-30 05:38:53 51°20.376 2°49.314 21.9273 0.078896 0.416548 -1.000568
2010-06-30 05:38:58 51°20.392 2°49.296 21.9014 0.07952 0.419971 -1.000568
2010-06-30 05:39:04 51°20.411 2°49.277 21.9131 0.080249 0.423951 -1.000568
2010-06-30 05:39:09 51°20.426 2°49.26 21.905 0.080249 0.423951 -1.000568
2010-06-30 05:39:13 51°20.439 2°49.247 21.9224 0.076919 0.405772 -1.000568
2010-06-30 05:39:19 51°20.458 2°49.226 21.9365 0.074214 0.391041 -1.000568
2010-06-30 05:39:24 51°20.473 2°49.21 21.8976 0.072861 0.383678 -0.965744
2010-06-30 05:39:29 51°20.489 2°49.193 21.9121 0.072341 0.380856 -1.035392
2010-06-30 05:39:34 51°20.505 2°49.177 21.8955 0.077751 0.410325 -1.000568
2010-06-30 05:39:38 51°20.517 2°49.163 21.9278 0.077751 0.410325 -1.000568
2010-06-30 05:39:44 51°20.536 2°49.143 21.9199 0.082746 0.43764 -1.000568
2010-06-30 05:39:49 51°20.551 2°49.126 21.9192 0.084723 0.448467 -1.035392
2010-06-30 05:39:53 51°20.564 2°49.112 21.9366 0.079416 0.419434 -0.965744
2010-06-30 05:39:59 51°20.582 2°49.092 21.9246 0.077543 0.409209 -1.035392
2010-06-30 05:40:04 51°20.598 2°49.075 21.9439 0.077543 0.409209 -1.035392
2010-06-30 05:40:09 51°20.613 2°49.058 21.9271 0.071717 0.377488 -1.035392
2010-06-30 05:40:13 51°20.625 2°49.044 21.9066 0.074318 0.391637 -1.000568
2010-06-30 05:40:18 51°20.641 2°49.028 21.9328 0.073797 0.388806 -1.000568
2010-06-30 05:40:24 51°20.66 2°49.007 21.9288 0.069844 0.367328 -1.035392
2010-06-30 05:40:29 51°20.675 2°48.99 21.9394 0.074838 0.394476 -1.000568
2010-06-30 05:40:33 51°20.688 2°48.977 21.9531 0.074838 0.394476 -1.000568
2010-06-30 05:40:39 51°20.706 2°48.957 21.9671 0.074006 0.389951 -1.035392
2010-06-30 05:40:44 51°20.722 2°48.94 21.9265 0.074214 0.391083 -1.035392
2010-06-30 05:40:49 51°20.738 2°48.924 21.9358 0.074942 0.395054 -1.035392
2010-06-30 05:40:53 51°20.75 2°48.91 21.9625 0.073381 0.386572 -1.000568
2010-06-30 05:40:58 51°20.766 2°48.893 21.9375 0.084827 0.449093 -1.035392
2010-06-30 05:41:04 51°20.784 2°48.873 21.9481 0.073589 0.38771 -1.000568
2010-06-30 05:41:09 51°20.8 2°48.856 21.9468 0.073589 0.38771 -1.000568
2010-06-30 05:41:13 51°20.812 2°48.842 21.9424 0.075983 0.400735 -1.035392
2010-06-30 05:41:18 51°20.828 2°48.825 21.9623 0.079208 0.418336 -1.000568
2010-06-30 05:41:24 51°20.847 2°48.805 21.9487 0.082954 0.438834 -1.035392
2010-06-30 05:41:29 51°20.862 2°48.788 21.9506 0.080353 0.424598 -1.000568
2010-06-30 05:41:34 51°20.878 2°48.771 21.9561 0.073589 0.387716 -1.000568
2010-06-30 05:41:38 51°20.89 2°48.758 21.941 0.073589 0.387716 -1.000568
2010-06-30 05:41:44 51°20.909 2°48.737 21.977 0.073902 0.38942 -1.000568
2010-06-30 05:41:49 51°20.924 2°48.72 21.9506 0.080561 0.425762 -1.000568
2010-06-30 05:41:53 51°20.937 2°48.707 21.9456 0.077127 0.407007 -1.000568
2010-06-30 05:41:58 51°20.952 2°48.69 21.9981 0.072029 0.379253 -1.035392
2010-06-30 05:42:04 51°20.97 2°48.669 21.9391 0.072029 0.379253 -1.035392
2010-06-30 05:42:09 51°20.986 2°48.652 21.9904 0.078168 0.412692 -1.000568
2010-06-30 05:42:14 51°21.001 2°48.635 21.9735 0.082226 0.434885 -1.035392
2010-06-30 05:42:18 51°21.014 2°48.622 21.9736 0.080249 0.424068 -1.035392
2010-06-30 05:42:24 51°21.033 2°48.602 21.9556 0.077543 0.409297 -1.035392
2010-06-30 05:42:29 51°21.048 2°48.585 21.9759 0.076087 0.401352 -1.035392
2010-06-30 05:42:33 51°21.061 2°48.572 21.9778 0.080457 0.425213 -1.000568
2010-06-30 05:42:39 51°21.08 2°48.552 21.9879 0.080457 0.425213 -1.000568
2010-06-30 05:42:44 51°21.096 2°48.537 21.9821 0.083162 0.440035 -1.000568
2010-06-30 05:42:49 51°21.111 2°48.521 21.973 0.080665 0.426364 -1.000568
2010-06-30 05:42:53 51°21.125 2°48.509 21.977 0.092528 0.491508 -1.035392
2010-06-30 05:42:59 51°21.143 2°48.489 21.9746 0.070884 0.373065 -1.035392
2010-06-30 05:43:04 51°21.16 2°48.474 22.003 0.070884 0.373065 -1.035392
2010-06-30 05:43:09 51°21.176 2°48.458 21.9842 0.078272 0.413292 -1.000568
2010-06-30 05:43:13 51°21.189 2°48.445 21.9892 0.071404 0.375902 -1.035392
2010-06-30 05:43:18 51°21.205 2°48.43 21.9757 0.07078 0.372511 -0.965744
2010-06-30 05:43:24 51°21.224 2°48.411 21.9885 0.077127 0.407063 -1.000568
2010-06-30 05:43:29 51°21.24 2°48.395 21.9868 0.081185 0.42925 -1.000568
2010-06-30 05:43:34 51°21.256 2°48.379 21.9768 0.081185 0.42925 -1.000568
2010-06-30 05:43:38 51°21.269 2°48.366 21.9795 0.074942 0.395157 -1.000568
2010-06-30 05:43:44 51°21.288 2°48.348 21.9792 0.074838 0.394597 -1.000568
2010-06-30 05:43:49 51°21.305 2°48.331 22.0142 0.0713 0.375348 -0.965744
2010-06-30 05:43:53 51°21.317 2°48.319 21.9815 0.07567 0.399132 -1.000568
2010-06-30 05:43:58 51°21.334 2°48.303 21.993 0.080769 0.426979 -1.035392
2010-06-30 05:44:04 51°21.353 2°48.284 21.993 0.080769 0.426979 -1.035392
2010-06-30 05:44:09 51°21.369 2°48.268 21.9969 0.071196 0.374794 -1.000568
2010-06-30 05:44:14 51°21.385 2°48.252 22.0144 0.077543 0.409353 -1.035392
2010-06-30 05:44:18 51°21.398 2°48.239 21.9701 0.087741 0.465231 -1.000568
2010-06-30 05:44:24 51°21.417 2°48.22 21.9897 0.080977 0.428137 -1.000568
2010-06-30 05:44:29 51°21.433 2°48.204 22.0004 0.084931 0.449809 -1.000568
2010-06-30 05:44:34 51°21.449 2°48.188 22.0025 0.076295 0.402572 -1.000568
2010-06-30 05:44:38 51°21.462 2°48.176 22.0128 0.076295 0.402572 -1.000568
2010-06-30 05:44:44 51°21.481 2°48.156 22.005 0.073381 0.386702 -1.035392
2010-06-30 05:44:49 51°21.498 2°48.141 21.9889 0.070884 0.373133 -1.000568
2010-06-30 05:44:53 51°21.51 2°48.128 22.0185 0.082226 0.435006 -1.000568
2010-06-30 05:44:59 51°21.529 2°48.108 22.0227 0.077023 0.406558 -1.035392
2010-06-30 05:45:04 51°21.545 2°48.093 21.9941 0.081081 0.428739 -0.965744
2010-06-30 05:45:09 51°21.561 2°48.077 22.0148 0.081081 0.428739 -0.965744
2010-06-30 05:45:13 51°21.574 2°48.064 22.0024 0.081914 0.433303 -1.035392
2010-06-30 05:45:19 51°21.593 2°48.044 22.0014 0.078272 0.413387 -1.035392
2010-06-30 05:45:24 51°21.609 2°48.029 22.033 0.079416 0.41964 -1.000568
2010-06-30 05:45:29 51°21.624 2°48.012 22.0246 0.074942 0.39523 -1.000568
2010-06-30 05:45:33 51°21.637 2°48 22.0285 0.074942 0.39523 -1.000568
2010-06-30 05:45:38 51°21.653 2°47.984 22.0303 0.077543 0.409422 -1.000568
2010-06-30 05:45:44 51°21.672 2°47.965 22.0132 0.077127 0.407151 -1.000568
2010-06-30 05:45:49 51°21.688 2°47.948 22.0372 0.085139 0.451006 -1.035392
2010-06-30 05:45:53 51°21.701 2°47.936 22.0242 0.079832 0.421935 -1.000568
2010-06-30 05:45:58 51°21.716 2°47.92 22.031 0.073381 0.38675 -1.035392
2010-06-30 05:46:04 51°21.736 2°47.901 22.0036 0.073381 0.38675 -1.035392
2010-06-30 05:46:09 51°21.752 2°47.885 22.0198 0.080977 0.428216 -1.035392
2010-06-30 05:46:13 51°21.765 2°47.872 22.0193 0.079832 0.421948 -1.035392
2010-06-30 05:46:19 51°21.784 2°47.853 22.0186 0.07567 0.399236 -1.035392
2010-06-30 05:46:24 51°21.8 2°47.836 22.0282 0.07848 0.414562 -1.000568
2010-06-30 05:46:29 51°21.816 2°47.82 22.0255 0.075983 0.400938 -1.000568
2010-06-30 05:46:34 51°21.832 2°47.804 22.0232 0.074526 0.392999 -1.035392
2010-06-30 05:46:38 51°21.845 2°47.791 22.0247 0.074526 0.392999 -1.035392
2010-06-30 05:46:44 51°21.864 2°47.772 22.0375 0.082954 0.439057 -1.000568
2010-06-30 05:46:49 51°21.881 2°47.757 22.0166 0.071612 0.377159 -1.000568
2010-06-30 05:46:53 51°21.894 2°47.744 22.0455 0.074422 0.392444 -1.000568
2010-06-30 05:46:59 51°21.914 2°47.725 22.0392 0.086909 0.46077 -1.000568
2010-06-30 05:47:04 51°21.93 2°47.71 22.0326 0.08951 0.475085 -1.035392
2010-06-30 05:47:09 51°21.947 2°47.694 22.0328 0.08951 0.475085 -1.035392
2010-06-30 05:47:13 51°21.96 2°47.681 22.0384 0.077543 0.409485 -1.035392
2010-06-30 05:47:19 51°21.979 2°47.662 22.05 0.079832 0.422 -1.035392
2010-06-30 05:47:24 51°21.996 2°47.646 22.0284 0.07515 0.396443 -1.035392
2010-06-30 05:47:29 51°22.012 2°47.631 22.0317 0.075878 0.400414 -1.035392
2010-06-30 05:47:33 51°22.026 2°47.618 22.0279 0.075878 0.400414 -1.035392
2010-06-30 05:47:39 51°22.045 2°47.599 22.0412 0.075566 0.398718 -1.000568
2010-06-30 05:47:44 51°22.062 2°47.584 22.0339 0.071925 0.37889 -0.965744
2010-06-30 05:47:49 51°22.078 2°47.568 22.0319 0.06974 0.367027 -0.965744
2010-06-30 05:47:53 51°22.092 2°47.555 22.0592 0.07952 0.420325 -1.000568
2010-06-30 05:47:58 51°22.107 2°47.539 22.0358 0.080873 0.427732 -1.000568
2010-06-30 05:48:04 51°22.127 2°47.52 22.0567 0.078896 0.416912 -1.000568
2010-06-30 05:48:09 51°22.143 2°47.505 22.0334 0.078896 0.416912 -1.000568
2010-06-30 05:48:13 51°22.157 2°47.493 22.0514 0.078792 0.416337 -1.000568
2010-06-30 05:48:19 51°22.176 2°47.474 22.0424 0.08233 0.43571 -1.000568
2010-06-30 05:48:24 51°22.192 2°47.458 22.0301 0.075878 0.400451 -0.965744
2010-06-30 05:48:29 51°22.209 2°47.442 22.0554 0.072757 0.383447 -0.965744
2010-06-30 05:48:34 51°22.225 2°47.427 22.0483 0.081914 0.433443 -1.000568
2010-06-30 05:48:38 51°22.238 2°47.415 22.0552 0.081914 0.433443 -1.000568
2010-06-30 05:48:44 51°22.258 2°47.396 22.0512 0.072029 0.379497 -1.035392
2010-06-30 05:48:49 51°22.274 2°47.381 22.0437 0.083162 0.440299 -1.000568
2010-06-30 05:48:53 51°22.287 2°47.369 22.0463 0.071717 0.377805 -1.000568
2010-06-30 05:48:59 51°22.307 2°47.35 22.0431 0.073485 0.38744 -1.000568
2010-06-30 05:49:04 51°22.323 2°47.334 22.0553 0.073797 0.38914 -1.000568
2010-06-30 05:49:09 51°22.34 2°47.319 22.0527 0.073797 0.38914 -1.000568
2010-06-30 05:49:14 51°22.356 2°47.303 22.0526 0.078272 0.413552 -1.000568
2010-06-30 05:49:18 51°22.369 2°47.291 22.0403 0.079624 0.420959 -1.035392
2010-06-30 05:49:24 51°22.389 2°47.272 22.0539 0.083058 0.439769 -1.035392
2010-06-30 05:49:29 51°22.405 2°47.257 22.061 0.076295 0.402776 -1.035392
2010-06-30 05:49:33 51°22.418 2°47.244 22.0602 0.076295 0.402776 -1.035392
2010-06-30 05:49:39 51°22.438 2°47.225 22.0541 0.076815 0.405622 -1.000568
2010-06-30 05:49:44 51°22.454 2°47.209 22.0554 0.079104 0.418133 -1.000568
2010-06-30 05:49:49 51°22.47 2°47.194 22.0597 0.071717 0.377858 -1.035392
2010-06-30 05:49:53 51°22.483 2°47.181 22.0595 0.075358 0.397693 -1.035392
2010-06-30 05:49:59 51°22.503 2°47.163 22.0648 0.081393 0.43068 -1.035392
2010-06-30 05:50:04 51°22.519 2°47.147 22.0717 0.082746 0.438091 -1.035392
2010-06-30 05:50:09 51°22.536 2°47.132 22.1028 0.082746 0.438091 -1.035392
2010-06-30 05:50:14 51°22.553 2°47.118 22.0851 0.082434 0.436394 -1.000568
2010-06-30 05:50:18 51°22.567 2°47.108 22.1288 0.073797 0.389194 -1.035392
2010-06-30 05:50:24 51°22.588 2°47.094 22.0318 0.081289 0.43011 -1.035392
2010-06-30 05:50:29 51°22.605 2°47.082 22.0045 0.072445 0.381836 -1.000568
2010-06-30 05:50:33 51°22.619 2°47.073 22.0012 0.078272 0.413615 -0.965744
2010-06-30 05:50:38 51°22.636 2°47.058 22.0759 0.078272 0.413615 -0.965744
2010-06-30 05:50:44 51°22.656 2°47.041 22.0637 0.083891 0.444423 -1.035392
2010-06-30 05:50:49 51°22.671 2°47.024 22.0625 0.068907 0.36266 -1.035392
2010-06-30 05:50:53 51°22.684 2°47.011 22.0704 0.081081 0.429023 -1.000568
2010-06-30 05:50:59 51°22.701 2°46.989 22.0641 0.068075 0.358145 -1.000568
2010-06-30 05:51:04 51°22.717 2°46.972 22.0797 0.075566 0.398877 -1.000568
2010-06-30 05:51:09 51°22.731 2°46.953 22.077 0.075566 0.398877 -1.000568
2010-06-30 05:51:14 51°22.746 2°46.934 22.068 0.0713 0.375652 -1.035392
2010-06-30 05:51:18 51°22.758 2°46.918 22.062 0.071612 0.377338 -1.000568
2010-06-30 05:51:24 51°22.774 2°46.894 22.089 0.075774 0.400024 -1.035392
2010-06-30 05:51:29 51°22.788 2°46.874 22.0636 0.081601 0.431873 -1.035392
2010-06-30 05:51:33 51°22.799 2°46.857 22.0809 0.068387 0.359843 -1.035392
2010-06-30 05:51:39 51°22.815 2°46.832 22.0811 0.068387 0.359843 -1.035392
2010-06-30 05:51:44 51°22.827 2°46.81 22.0858 0.073485 0.387553 -1.000568
2010-06-30 05:51:49 51°22.841 2°46.789 22.0821 0.074214 0.391527 -1.035392
2010-06-30 05:51:53 51°22.851 2°46.771 22.0932 0.068699 0.361553 -1.000568
2010-06-30 05:51:59 51°22.866 2°46.745 22.0878 0.081289 0.430196 -1.035392
2010-06-30 05:52:04 51°22.879 2°46.723 22.1023 0.075878 0.400623 -1.035392
2010-06-30 05:52:09 51°22.892 2°46.701 22.0856 0.075878 0.400623 -1.035392
2010-06-30 05:52:13 51°22.902 2°46.683 22.093 0.07515 0.396656 -1.035392
2010-06-30 05:52:18 51°22.915 2°46.661 22.0792 0.08233 0.435911 -1.035392
2010-06-30 05:52:24 51°22.93 2°46.635 22.0995 0.079208 0.418818 -1.035392
2010-06-30 05:52:29 51°22.943 2°46.612 22.1018 0.077023 0.406883 -1.000568
2010-06-30 05:52:33 51°22.953 2°46.595 22.0953 0.077023 0.406883 -1.000568
2010-06-30 05:52:38 51°22.966 2°46.572 22.1013 0.083266 0.441053 -0.965744
2010-06-30 05:52:44 51°22.981 2°46.547 22.0853 0.079312 0.419394 -1.000568
2010-06-30 05:52:49 51°22.994 2°46.525 22.0989 0.070676 0.372311 -1.035392
2010-06-30 05:52:54 51°23.007 2°46.503 22.0977 0.075774 0.400086 -1.035392
2010-06-30 05:52:58 51°23.017 2°46.485 22.0888 0.081914 0.433663 -1.000568
2010-06-30 05:53:04 51°23.033 2°46.459 22.0984 0.081914 0.433663 -1.000568
2010-06-30 05:53:09 51°23.046 2°46.437 22.0977 0.072757 0.383658 -1.000568
2010-06-30 05:53:13 51°23.057 2°46.42 22.0952 0.077543 0.409768 -1.035392
2010-06-30 05:53:19 51°23.072 2°46.394 22.0937 0.077335 0.408638 -1.035392
2010-06-30 05:53:24 51°23.085 2°46.372 22.0965 0.073069 0.38537 -1.035392
2010-06-30 05:53:29 51°23.098 2°46.35 22.0884 0.084827 0.449688 -1.000568
2010-06-30 05:53:34 51°23.11 2°46.327 22.099 0.065578 0.344708 -1.000568
2010-06-30 05:53:38 51°23.12 2°46.309 22.0843 0.065578 0.344708 -1.000568
2010-06-30 05:53:44 51°23.134 2°46.281 22.0986 0.083058 0.439986 -1.000568
2010-06-30 05:53:49 51°23.147 2°46.259 22.1015 0.079208 0.418908 -1.000568
2010-06-30 05:53:53 51°23.157 2°46.24 22.1048 0.073797 0.389373 -1.000568
2010-06-30 05:53:59 51°23.171 2°46.213 22.1068 0.07515 0.396741 -1.035392
2010-06-30 05:54:04 51°23.184 2°46.19 22.0984 0.080561 0.426319 -1.000568
2010-06-30 05:54:09 51°23.196 2°46.167 22.092 0.080561 0.426319 -1.000568
2010-06-30 05:54:13 51°23.205 2°46.149 22.0989 0.087949 0.466879 -1.000568
2010-06-30 05:54:18 51°23.217 2°46.127 22.1178 0.081601 0.432026 -0.965744
2010-06-30 05:54:24 51°23.232 2°46.099 22.1138 0.079312 0.419491 -0.965744
2010-06-30 05:54:29 51°23.244 2°46.076 22.1039 0.072445 0.382012 -1.000568
2010-06-30 05:54:33 51°23.253 2°46.057 22.1092 0.072445 0.382012 -1.000568
2010-06-30 05:54:38 51°23.265 2°46.034 22.1126 0.074942 0.395618 -1.035392
2010-06-30 05:54:44 51°23.28 2°46.007 22.1093 0.073485 0.38769 -1.000568
2010-06-30 05:54:49 51°23.292 2°45.983 22.111 0.076503 0.404154 -1.035392
2010-06-30 05:54:54 51°23.303 2°45.96 22.1127 0.078064 0.412687 -1.000568
2010-06-30 05:54:58 51°23.313 2°45.942 22.1124 0.082434 0.436622 -0.965744
2010-06-30 05:55:04 51°23.327 2°45.915 22.1075 0.082434 0.436622 -0.965744
2010-06-30 05:55:09 51°23.339 2°45.892 22.1237 0.070468 0.371276 -1.000568
2010-06-30 05:55:14 51°23.351 2°45.87 22.1052 0.07411 0.391116 -1.035392
2010-06-30 05:55:18 51°23.361 2°45.851 22.1266 0.086804 0.460631 -1.000568
2010-06-30 05:55:24 51°23.376 2°45.824 22.1087 0.074422 0.392824 -1.035392
2010-06-30 05:55:29 51°23.388 2°45.801 22.1151 0.072965 0.384892 -1.000568
2010-06-30 05:55:33 51°23.398 2°45.782 22.1237 0.0713 0.375837 -1.035392
2010-06-30 05:55:39 51°23.412 2°45.755 22.126 0.0713 0.375837 -1.035392
2010-06-30 05:55:44 51°23.424 2°45.732 22.115 0.068699 0.361703 -1.000568
2010-06-30 05:55:49 51°23.437 2°45.709 22.115 0.074734 0.394538 -1.000568
2010-06-30 05:55:53 51°23.446 2°45.69 22.1202 0.07515 0.396826 -1.035392
2010-06-30 05:55:58 51°23.459 2°45.668 22.1234 0.074214 0.391725 -1.000568
2010-06-30 05:56:04 51°23.474 2°45.64 22.1242 0.074214 0.391725 -1.000568
2010-06-30 05:56:09 51°23.486 2°45.617 22.1291 0.082538 0.437247 -1.035392
2010-06-30 05:56:13 51°23.496 2°45.599 22.1231 0.073797 0.389462 -1.035392
2010-06-30 05:56:19 51°23.51 2°45.571 22.1253 0.07796 0.412182 -1.000568
2010-06-30 05:56:24 51°23.522 2°45.548 22.1142 0.082122 0.434984 -1.000568
2010-06-30 05:56:29 51°23.534 2°45.526 22.1395 0.078272 0.413902 -1.000568
2010-06-30 05:56:33 51°23.543 2°45.508 22.1341 0.078272 0.413902 -1.000568
2010-06-30 05:56:38 51°23.555 2°45.485 22.1197 0.081601 0.432139 -1.000568
2010-06-30 05:56:44 51°23.569 2°45.458 22.1207 0.072861 0.384378 -1.035392
2010-06-30 05:56:49 51°23.581 2°45.435 22.1291 0.07515 0.396863 -1.035392
2010-06-30 05:56:53 51°23.59 2°45.417 22.1233 0.075358 0.398011 -1.000568
2010-06-30 05:56:58 51°23.602 2°45.394 22.1324 0.076919 0.406533 -1.035392
2010-06-30 05:57:04 51°23.619 2°45.368 22.1304 0.07567 0.39972 -1.000568
2010-06-30 05:57:09 51°23.631 2°45.345 22.1349 0.07567 0.39972 -1.000568
2010-06-30 05:57:13 51°23.641 2°45.327 22.135 0.071196 0.375345 -1.000568
2010-06-30 05:57:18 51°23.653 2°45.305 22.1371 0.07463 0.394049 -0.965744
2010-06-30 05:57:24 51°23.668 2°45.277 22.1384 0.076815 0.40599 -1.000568
2010-06-30 05:57:29 51°23.68 2°45.255 22.131 0.084931 0.450461 -1.000568
2010-06-30 05:57:33 51°23.69 2°45.237 22.1364 0.084931 0.450461 -1.000568
2010-06-30 05:57:38 51°23.701 2°45.214 22.1277 0.073173 0.386126 -1.035392
2010-06-30 05:57:44 51°23.717 2°45.188 22.1385 0.081289 0.430481 -1.000568
2010-06-30 05:57:49 51°23.73 2°45.166 22.1385 0.074214 0.391803 -1.000568
2010-06-30 05:57:53 51°23.74 2°45.149 22.1398 0.070364 0.370841 -1.000568
2010-06-30 05:57:59 51°23.755 2°45.122 22.1331 0.069219 0.364633 -1.000568
2010-06-30 05:58:04 51°23.767 2°45.099 22.1445 0.069219 0.364633 -1.000568
2010-06-30 05:58:09 51°23.779 2°45.077 22.1359 0.072757 0.383882 -1.000568
2010-06-30 05:58:14 51°23.791 2°45.055 22.1338 0.080145 0.424236 -1.000568
2010-06-30 05:58:18 51°23.8 2°45.036 22.142 0.070156 0.369744 -1.000568
2010-06-30 05:58:24 51°23.814 2°45.009 22.1407 0.07411 0.391266 -1.035392
2010-06-30 05:58:29 51°23.825 2°44.985 22.1447 0.072133 0.380506 -1.000568
2010-06-30 05:58:33 51°23.834 2°44.967 22.145 0.072133 0.380506 -1.000568
2010-06-30 05:58:39 51°23.846 2°44.936 22.1411 0.077439 0.40947 -1.035392
2010-06-30 05:58:44 51°23.857 2°44.913 22.1497 0.075983 0.401505 -1.000568
2010-06-30 05:58:49 51°23.869 2°44.89 22.1432 0.073693 0.389027 -1.000568
2010-06-30 05:58:53 51°23.878 2°44.871 22.1564 0.087845 0.466565 -1.000568
2010-06-30 05:58:58 51°23.888 2°44.847 22.1424 0.078792 0.416875 -1.000568
2010-06-30 05:59:04 51°23.901 2°44.817 22.1489 0.078584 0.415737 -1.035392
2010-06-30 05:59:09 51°23.911 2°44.793 22.1494 0.078584 0.415737 -1.035392
2010-06-30 05:59:14 51°23.922 2°44.769 22.1465 0.071404 0.376558 -1.000568
2010-06-30 05:59:18 51°23.931 2°44.75 22.1564 0.073797 0.3896 -1.000568
2010-06-30 05:59:24 51°23.943 2°44.721 22.1436 0.069323 0.365249 -1.000568
2010-06-30 05:59:29 51°23.955 2°44.697 22.155 0.074942 0.395849 -1.000568
2010-06-30 05:59:33 51°23.963 2°44.678 22.1475 0.074422 0.393017 -1.000568
2010-06-30 05:59:38 51°23.974 2°44.654 22.1523 0.074422 0.393017 -1.000568
2010-06-30 05:59:44 51°23.986 2°44.625 22.1567 0.075358 0.398133 -1.035392
2010-06-30 05:59:49 51°23.995 2°44.601 22.1462 0.080249 0.424884 -1.035392
2010-06-30 05:59:54 51°24.006 2°44.576 22.1601 0.085972 0.456307 -1.000568
2010-06-30 05:59:58 51°24.014 2°44.557 22.1515 0.081393 0.431171 -1.000568
2010-06-30 06:00:04 51°24.027 2°44.527 22.1604 0.081393 0.431171 -1.000568
2010-06-30 06:00:09 51°24.038 2°44.502 22.1539 0.074006 0.390777 -1.000568
2010-06-30 06:00:14 51°24.048 2°44.478 22.1603 0.082538 0.437449 -1.035392
2010-06-30 06:00:19 51°24.059 2°44.454 22.1591 0.07952 0.420914 -1.000568
2010-06-30 06:00:24 51°24.069 2°44.43 22.1592 0.076919 0.406683 -1.000568
2010-06-30 06:00:29 51°24.08 2°44.406 22.1573 0.079104 0.418642 -1.000568
2010-06-30 06:00:33 51°24.088 2°44.386 22.1625 0.073485 0.387946 -1.000568
2010-06-30 06:00:38 51°24.099 2°44.362 22.1588 0.073485 0.387946 -1.000568
2010-06-30 06:00:44 51°24.112 2°44.334 22.1631 0.073589 0.388519 -0.965744
2010-06-30 06:00:49 51°24.123 2°44.31 22.1612 0.077335 0.408977 -1.035392
2010-06-30 06:00:53 51°24.131 2°44.29 22.1586 0.075878 0.401017 -0.965744
2010-06-30 06:00:59 51°24.144 2°44.262 22.1647 0.076399 0.403877 -1.000568
2010-06-30 06:01:04 51°24.155 2°44.238 22.1593 0.078584 0.41582 -1.000568
2010-06-30 06:01:09 51°24.166 2°44.214 22.1589 0.078584 0.41582 -1.000568
2010-06-30 06:01:13 51°24.175 2°44.195 22.1609 0.08337 0.442073 -1.035392
2010-06-30 06:01:18 51°24.186 2°44.171 22.1632 0.081393 0.43123 -1.000568
2010-06-30 06:01:24 51°24.198 2°44.141 22.1632 0.069323 0.365333 -1.035392
2010-06-30 06:01:29 51°24.209 2°44.118 22.1659 0.081393 0.431237 -1.000568
2010-06-30 06:01:33 51°24.217 2°44.098 22.1707 0.081393 0.431237 -1.000568
2010-06-30 06:01:38 51°24.228 2°44.074 22.1826 0.075774 0.400485 -1.000568
2010-06-30 06:01:43 51°24.239 2°44.05 22.1804 0.07796 0.412436 -1.000568
2010-06-30 06:01:49 51°24.253 2°44.022 22.1714 0.07796 0.412448 -1.000568
2010-06-30 06:01:53 51°24.263 2°44.004 22.1772 0.080873 0.428391 -0.965744
2010-06-30 06:01:58 51°24.275 2°43.981 22.1733 0.076607 0.405058 -1.000568
2010-06-30 06:02:03 51°24.287 2°43.959 22.1742 0.076607 0.405058 -1.000568
2010-06-30 06:02:09 51°24.302 2°43.933 22.1776 0.080561 0.4267 -1.000568
2010-06-30 06:02:13 51°24.313 2°43.916 22.1812 0.078896 0.417586 -1.000568
2010-06-30 06:02:18 51°24.326 2°43.895 22.1766 0.073173 0.386321 -1.035392
2010-06-30 06:02:24 51°24.343 2°43.871 22.173 0.090447 0.481066 -1.035392
2010-06-30 06:02:29 51°24.356 2°43.85 22.1817 0.082538 0.437557 -1.000568
2010-06-30 06:02:34 51°24.368 2°43.83 22.1898 0.086076 0.457 -1.000568
2010-06-30 06:02:38 51°24.377 2°43.814 22.1877 0.086076 0.457 -1.000568
2010-06-30 06:02:44 51°24.394 2°43.791 22.1796 0.077023 0.407365 -1.000568
2010-06-30 06:02:49 51°24.409 2°43.773 22.1838 0.07952 0.421024 -1.000568
2010-06-30 06:02:54 51°24.429 2°43.756 22.1834 0.068803 0.362578 -1.000568
2010-06-30 06:02:59 51°24.445 2°43.741 22.1839 0.079624 0.42162 -1.035392
2010-06-30 06:03:04 51°24.459 2°43.722 22.1797 0.077855 0.411943 -1.035392
2010-06-30 06:03:09 51°24.475 2°43.706 22.1901 0.077855 0.411943 -1.035392
2010-06-30 06:03:13 51°24.487 2°43.692 22.182 0.081601 0.432472 -1.000568
2010-06-30 06:03:19 51°24.506 2°43.671 22.1851 0.082226 0.435898 -1.035392
2010-06-30 06:03:24 51°24.522 2°43.655 22.1846 0.070988 0.374466 -0.965744
2010-06-30 06:03:29 51°24.537 2°43.639 22.182 0.074526 0.39376 -1.000568
2010-06-30 06:03:33 51°24.55 2°43.626 22.1819 0.074526 0.39376 -1.000568
2010-06-30 06:03:38 51°24.566 2°43.609 22.1801 0.074838 0.395464 -0.965744
2010-06-30 06:03:44 51°24.585 2°43.59 22.1859 0.076087 0.402289 -1.000568
2010-06-30 06:03:49 51°24.6 2°43.572 22.1868 0.069948 0.368828 -1.000568
2010-06-30 06:03:53 51°24.613 2°43.559 22.1906 0.080041 0.423933 -1.000568
2010-06-30 06:03:58 51°24.628 2°43.541 22.1853 0.072549 0.382995 -1.035392
2010-06-30 06:04:04 51°24.646 2°43.52 22.1936 0.070156 0.369965 -1.000568
2010-06-30 06:04:09 51°24.661 2°43.503 22.1855 0.070156 0.369965 -1.000568
2010-06-30 06:04:13 51°24.674 2°43.489 22.1923 0.07796 0.41255 -1.035392
2010-06-30 06:04:18 51°24.689 2°43.471 22.1892 0.082122 0.435367 -1.035392
2010-06-30 06:04:24 51°24.707 2°43.45 22.1888 0.072029 0.380178 -1.000568
2010-06-30 06:04:28 51°24.719 2°43.435 22.199 0.073277 0.386984 -1.000568
2010-06-30 06:04:33 51°24.734 2°43.418 22.1918 0.076919 0.406877 -0.965744
2010-06-30 06:04:38 51°24.749 2°43.4 22.1917 0.076919 0.406877 -0.965744
2010-06-30 06:04:44 51°24.767 2°43.379 22.1915 0.07515 0.397211 -1.000568
2010-06-30 06:04:48 51°24.779 2°43.364 22.1895 0.075983 0.40177 -1.035392
2010-06-30 06:04:53 51°24.794 2°43.347 22.1995 0.072445 0.382464 -1.035392
2010-06-30 06:04:58 51°24.809 2°43.328 22.1898 0.071925 0.379635 -1.000568
2010-06-30 06:05:04 51°24.827 2°43.307 22.1991 0.068491 0.360954 -1.035392
2010-06-30 06:05:09 51°24.842 2°43.289 22.1975 0.068491 0.360954 -1.035392
2010-06-30 06:05:13 51°24.854 2°43.274 22.1973 0.074318 0.39269 -1.000568
2010-06-30 06:05:18 51°24.869 2°43.256 22.1919 0.073069 0.385885 -1.000568
2010-06-30 06:05:24 51°24.887 2°43.234 22.207 0.074526 0.393838 -1.035392
2010-06-30 06:05:29 51°24.902 2°43.216 22.1991 0.075358 0.39839 -1.000568
2010-06-30 06:05:33 51°24.914 2°43.202 22.2037 0.075358 0.39839 -1.000568
2010-06-30 06:05:38 51°24.929 2°43.183 22.2036 0.075566 0.399539 -0.965744
2010-06-30 06:05:44 51°24.946 2°43.162 22.1993 0.071092 0.375136 -0.965744
2010-06-30 06:05:49 51°24.961 2°43.144 22.2008 0.082018 0.434869 -0.965744
2010-06-30 06:05:53 51°24.974 2°43.129 22.2031 0.078376 0.414911 -1.000568
2010-06-30 06:05:58 51°24.988 2°43.111 22.205 0.076815 0.406377 -1.035392
2010-06-30 06:06:04 51°25.006 2°43.089 22.2083 0.076919 0.406952 -1.035392
2010-06-30 06:06:09 51°25.021 2°43.07 22.2052 0.076919 0.406952 -1.035392
2010-06-30 06:06:13 51°25.033 2°43.055 22.2106 0.073069 0.385932 -1.035392
2010-06-30 06:06:18 51°25.048 2°43.037 22.2059 0.077023 0.407528 -1.035392
2010-06-30 06:06:24 51°25.066 2°43.015 22.2061 0.080561 0.426917 -1.035392
2010-06-30 06:06:29 51°25.081 2°42.996 22.2058 0.072653 0.383674 -0.965744
2010-06-30 06:06:33 51°25.093 2°42.982 22.2067 0.072653 0.383674 -0.965744
2010-06-30 06:06:38 51°25.107 2°42.963 22.2035 0.067659 0.356499 -0.965744
2010-06-30 06:06:44 51°25.125 2°42.941 22.2088 0.077023 0.407546 -1.000568
2010-06-30 06:06:49 51°25.14 2°42.922 22.2092 0.070884 0.374049 -1.035392
2010-06-30 06:06:54 51°25.155 2°42.903 22.212 0.080873 0.428649 -1.035392
2010-06-30 06:06:58 51°25.167 2°42.888 22.2147 0.071612 0.378021 -1.035392
2010-06-30 06:07:04 51°25.185 2°42.866 22.2119 0.071612 0.378021 -1.035392
2010-06-30 06:07:09 51°25.2 2°42.848 22.208 0.074942 0.396184 -1.000568
2010-06-30 06:07:13 51°25.212 2°42.833 22.2135 0.072237 0.381423 -1.000568
2010-06-30 06:07:18 51°25.227 2°42.815 22.2099 0.079208 0.419535 -1.000568
2010-06-30 06:07:24 51°25.245 2°42.793 22.2171 0.084099 0.446384 -1.000568
2010-06-30 06:07:29 51°25.26 2°42.774 22.2159 0.076711 0.405877 -1.000568
2010-06-30 06:07:33 51°25.272 2°42.76 22.2162 0.076711 0.405877 -1.000568
2010-06-30 06:07:38 51°25.287 2°42.741 22.213 0.074838 0.39564 -1.000568
2010-06-30 06:07:44 51°25.305 2°42.72 22.2199 0.078376 0.414994 -0.965744
2010-06-30 06:07:49 51°25.32 2°42.701 22.2185 0.07463 0.394522 -1.000568
2010-06-30 06:07:53 51°25.332 2°42.687 22.2153 0.074526 0.393953 -1.000568
2010-06-30 06:07:59 51°25.35 2°42.665 22.2185 0.076815 0.406483 -1.035392
2010-06-30 06:08:04 51°25.365 2°42.647 22.2181 0.086076 0.457303 -1.000568
2010-06-30 06:08:09 51°25.38 2°42.628 22.2173 0.086076 0.457303 -1.000568
2010-06-30 06:08:13 51°25.392 2°42.613 22.2204 0.073485 0.388286 -1.000568
2010-06-30 06:08:18 51°25.407 2°42.595 22.2256 0.079104 0.419023 -0.965744
2010-06-30 06:08:23 51°25.421 2°42.576 22.2201 0.076815 0.406489 -0.965744
2010-06-30 06:08:29 51°25.439 2°42.554 22.2209 0.080561 0.427009 -1.000568
2010-06-30 06:08:33 51°25.451 2°42.539 22.2237 0.07078 0.373551 -1.000568
2010-06-30 06:08:38 51°25.466 2°42.521 22.221 0.07078 0.373551 -1.000568
2010-06-30 06:08:44 51°25.485 2°42.499 22.2273 0.084099 0.446446 -1.000568
2010-06-30 06:08:49 51°25.5 2°42.48 22.2243 0.068803 0.3628 -1.000568
2010-06-30 06:08:53 51°25.511 2°42.465 22.2267 0.076399 0.404225 -1.035392
2010-06-30 06:08:58 51°25.526 2°42.447 22.2288 0.087533 0.465364 -1.000568
2010-06-30 06:09:04 51°25.544 2°42.425 22.2235 0.087533 0.465364 -1.000568
2010-06-30 06:09:09 51°25.559 2°42.406 22.2221 0.085556 0.454488 -1.035392
2010-06-30 06:09:13 51°25.571 2°42.391 22.227 0.079 0.418491 -1.000568
2010-06-30 06:09:18 51°25.586 2°42.373 22.2305 0.075358 0.398568 -1.035392
2010-06-30 06:09:24 51°25.604 2°42.351 22.2304 0.070156 0.370198 -0.965744
2010-06-30 06:09:29 51°25.619 2°42.333 22.2371 0.07515 0.397437 -1.000568
2010-06-30 06:09:33 51°25.631 2°42.318 22.2314 0.078064 0.413387 -0.965744
2010-06-30 06:09:38 51°25.647 2°42.301 22.2322 0.078064 0.413387 -0.965744
2010-06-30 06:09:44 51°25.665 2°42.279 22.2335 0.068179 0.359457 -1.000568
2010-06-30 06:09:49 51°25.681 2°42.262 22.2314 0.078792 0.417377 -1.000568
2010-06-30 06:09:53 51°25.693 2°42.248 22.235 0.071821 0.379289 -1.000568
2010-06-30 06:09:58 51°25.708 2°42.23 22.2293 0.081497 0.432228 -1.000568
2010-06-30 06:10:04 51°25.727 2°42.209 22.2344 0.066098 0.348179 -1.000568
2010-06-30 06:10:09 51°25.742 2°42.191 22.2313 0.066098 0.348179 -1.000568
2010-06-30 06:10:13 51°25.754 2°42.177 22.2332 0.074422 0.393494 -1.035392
2010-06-30 06:10:18 51°25.769 2°42.16 22.2335 0.079416 0.420831 -1.000568
2010-06-30 06:10:24 51°25.788 2°42.138 22.2356 0.074734 0.395212 -1.000568
2010-06-30 06:10:29 51°25.803 2°42.12 22.236 0.080041 0.424254 -0.965744
2010-06-30 06:10:33 51°25.815 2°42.106 22.2376 0.080041 0.424254 -0.965744
2010-06-30 06:10:38 51°25.83 2°42.088 22.2362 0.070156 0.370243 -1.035392
2010-06-30 06:10:44 51°25.849 2°42.067 22.2372 0.079416 0.420837 -1.035392
2010-06-30 06:10:49 51°25.864 2°42.049 22.2339 0.076295 0.40375 -1.000568
2010-06-30 06:10:53 51°25.876 2°42.034 22.2383 0.077127 0.40831 -1.000568
2010-06-30 06:10:58 51°25.891 2°42.016 22.2414 0.073589 0.388973 -1.000568
2010-06-30 06:11:03 51°25.906 2°41.998 22.2378 0.073589 0.388973 -1.000568
2010-06-30 06:11:09 51°25.925 2°41.977 22.2422 0.075358 0.398641 -0.965744
2010-06-30 06:11:13 51°25.937 2°41.961 22.2403 0.071717 0.378769 -1.000568
2010-06-30 06:11:18 51°25.952 2°41.944 22.2414 0.0918 0.48904 -1.035392
2010-06-30 06:11:24 51°25.97 2°41.921 22.2456 0.069011 0.364044 -1.000568
2010-06-30 06:11:28 51°25.983 2°41.907 22.2414 0.076295 0.403775 -0.965744
2010-06-30 06:11:33 51°25.998 2°41.889 22.2441 0.073798 0.390139 -1.035392
2010-06-30 06:11:38 51°26.013 2°41.87 22.2454 0.073798 0.390139 -1.035392
2010-06-30 06:11:44 51°26.031 2°41.848 22.2443 0.07411 0.391844 -1.035392
2010-06-30 06:11:49 51°26.046 2°41.829 22.2451 0.077127 0.408355 -1.035392
2010-06-30 06:11:53 51°26.058 2°41.815 22.2497 0.074734 0.395266 -1.035392
2010-06-30 06:11:58 51°26.073 2°41.796 22.2471 0.079 0.418614 -1.000568
2010-06-30 06:12:04 51°26.092 2°41.774 22.2436 0.074526 0.394135 -1.035392
2010-06-30 06:12:09 51°26.107 2°41.756 22.2515 0.074526 0.394135 -1.035392
2010-06-30 06:12:13 51°26.119 2°41.741 22.2471 0.082018 0.435192 -1.000568
2010-06-30 06:12:18 51°26.135 2°41.723 22.2511 0.076087 0.40268 -0.965744
2010-06-30 06:12:24 51°26.153 2°41.701 22.2476 0.075046 0.396997 -1.000568
2010-06-30 06:12:29 51°26.168 2°41.682 22.2489 0.078688 0.416922 -1.000568
2010-06-30 06:12:33 51°26.181 2°41.668 22.2479 0.07411 0.391874 -0.965744
2010-06-30 06:12:38 51°26.196 2°41.649 22.2488 0.07411 0.391874 -0.965744
2010-06-30 06:12:44 51°26.214 2°41.628 22.2496 0.080353 0.426065 -1.035392
2010-06-30 06:12:49 51°26.229 2°41.609 22.2523 0.070884 0.374296 -1.000568
2010-06-30 06:12:53 51°26.241 2°41.595 22.2537 0.074942 0.396434 -1.000568
2010-06-30 06:12:58 51°26.256 2°41.576 22.253 0.072029 0.380546 -1.000568
2010-06-30 06:13:04 51°26.275 2°41.555 22.2502 0.072029 0.380546 -1.000568
2010-06-30 06:13:09 51°26.29 2°41.537 22.2512 0.073277 0.387359 -1.070216
2010-06-30 06:13:13 51°26.302 2°41.522 22.2543 0.081081 0.430089 -1.035392
2010-06-30 06:13:18 51°26.317 2°41.504 22.2536 0.071717 0.378856 -1.035392
2010-06-30 06:13:24 51°26.335 2°41.482 22.254 0.077231 0.408993 -0.965744
2010-06-30 06:13:29 51°26.351 2°41.464 22.2553 0.091071 0.485127 -1.000568
2010-06-30 06:13:33 51°26.363 2°41.449 22.2568 0.084099 0.446694 -1.000568
2010-06-30 06:13:38 51°26.378 2°41.432 22.256 0.084099 0.446694 -1.000568
2010-06-30 06:13:44 51°26.396 2°41.409 22.2576 0.080561 0.427259 -1.000568
2010-06-30 06:13:49 51°26.412 2°41.392 22.2544 0.073173 0.386826 -1.035392
2010-06-30 06:13:53 51°26.424 2°41.377 22.2577 0.081081 0.430135 -1.000568
2010-06-30 06:13:58 51°26.439 2°41.359 22.2561 0.086596 0.460482 -1.035392
2010-06-30 06:14:04 51°26.457 2°41.337 22.2612 0.076711 0.406189 -1.035392
2010-06-30 06:14:09 51°26.472 2°41.319 22.2595 0.076711 0.406189 -1.035392
2010-06-30 06:14:13 51°26.484 2°41.304 22.2602 0.08181 0.434142 -1.035392
2010-06-30 06:14:18 51°26.5 2°41.286 22.26 0.080561 0.427292 -1.035392
2010-06-30 06:14:24 51°26.518 2°41.264 22.2622 0.077335 0.409614 -1.035392
2010-06-30 06:14:29 51°26.533 2°41.246 22.2614 0.074422 0.39367 -1.000568
2010-06-30 06:14:33 51°26.546 2°41.232 22.2601 0.074422 0.39367 -1.000568
2010-06-30 06:14:38 51°26.561 2°41.214 22.2616 0.074422 0.39367 -1.000568
2010-06-30 06:14:44 51°26.58 2°41.193 22.2635 0.078168 0.414174 -1.000568
2010-06-30 06:14:49 51°26.595 2°41.174 22.2631 0.07567 0.400508 -1.000568
2010-06-30 06:14:53 51°26.607 2°41.16 22.2627 0.077647 0.41133 -1.000568
2010-06-30 06:14:58 51°26.622 2°41.142 22.2642 0.071196 0.376089 -1.000568
2010-06-30 06:15:04 51°26.64 2°41.121 22.2668 0.071196 0.376089 -1.000568
2010-06-30 06:15:09 51°26.656 2°41.103 22.2649 0.077856 0.412482 -1.000568
2010-06-30 06:15:13 51°26.668 2°41.088 22.2664 0.075879 0.401653 -1.000568
2010-06-30 06:15:18 51°26.683 2°41.07 22.266 0.076711 0.406221 -1.000568
2010-06-30 06:15:24 51°26.701 2°41.049 22.2671 0.078376 0.41534 -1.000568
2010-06-30 06:15:29 51°26.716 2°41.032 22.268 0.075358 0.39882 -1.000568
2010-06-30 06:15:33 51°26.729 2°41.017 22.2688 0.070156 0.370425 -1.035392
2010-06-30 06:15:38 51°26.744 2°40.999 22.2694 0.070156 0.370425 -1.035392
2010-06-30 06:15:44 51°26.762 2°40.978 22.27 0.07411 0.392001 -1.035392
2010-06-30 06:15:49 51°26.778 2°40.961 22.2699 0.080873 0.429052 -1.035392
2010-06-30 06:15:53 51°26.79 2°40.947 22.2699 0.071508 0.377814 -1.035392
2010-06-30 06:15:58 51°26.806 2°40.929 22.2709 0.079208 0.419929 -1.035392
2010-06-30 06:16:04 51°26.824 2°40.907 22.2716 0.079208 0.419929 -1.035392
2010-06-30 06:16:09 51°26.839 2°40.889 22.2726 0.078272 0.414808 -1.000568
2010-06-30 06:16:13 51°26.852 2°40.875 22.2742 0.077439 0.41024 -1.035392
2010-06-30 06:16:19 51°26.87 2°40.853 22.2739 0.076919 0.407404 -1.000568
2010-06-30 06:16:24 51°26.885 2°40.835 22.274 0.072965 0.385797 -1.070216
2010-06-30 06:16:29 51°26.901 2°40.818 22.2738 0.076087 0.40286 -1.000568
2010-06-30 06:16:33 51°26.913 2°40.804 22.2745 0.076087 0.40286 -1.000568
2010-06-30 06:16:39 51°26.931 2°40.783 22.2751 0.08181 0.43425 -1.000568
2010-06-30 06:16:44 51°26.946 2°40.765 22.2761 0.082122 0.435979 -0.965744
2010-06-30 06:16:49 51°26.961 2°40.747 22.2779 0.072237 0.381846 -1.000568
2010-06-30 06:16:53 51°26.973 2°40.733 22.2773 0.075879 0.401739 -1.000568
2010-06-30 06:16:58 51°26.988 2°40.715 22.2771 0.077543 0.410855 -1.000568
2010-06-30 06:17:04 51°27.007 2°40.694 22.2791 0.065474 0.345046 -1.035392
2010-06-30 06:17:09 51°27.022 2°40.676 22.2793 0.065474 0.345046 -1.035392
2010-06-30 06:17:13 51°27.035 2°40.661 22.2795 0.075774 0.40117 -1.035392
2010-06-30 06:17:18 51°27.05 2°40.643 22.2798 0.070988 0.37503 -1.000568
2010-06-30 06:17:24 51°27.068 2°40.622 22.2825 0.076919 0.407441 -1.035392
2010-06-30 06:17:29 51°27.083 2°40.605 22.2816 0.070988 0.375036 -1.035392
2010-06-30 06:17:33 51°27.096 2°40.591 22.281 0.070988 0.375036 -1.035392
2010-06-30 06:17:38 51°27.111 2°40.573 22.2805 0.072445 0.382993 -1.035392
2010-06-30 06:17:43 51°27.126 2°40.556 22.284 0.077023 0.40803 -1.000568
2010-06-30 06:17:49 51°27.145 2°40.534 22.2818 0.069636 0.367694 -1.000568
2010-06-30 06:17:53 51°27.157 2°40.52 22.2838 0.076191 0.403491 -1.000568
2010-06-30 06:17:58 51°27.172 2°40.502 22.283 0.081602 0.433173 -1.035392
2010-06-30 06:18:04 51°27.191 2°40.481 22.2846 0.081602 0.433173 -1.035392
2010-06-30 06:18:09 51°27.206 2°40.463 22.2849 0.067243 0.354685 -1.035392
2010-06-30 06:18:13 51°27.219 2°40.448 22.2855 0.07515 0.397816 -1.035392
2010-06-30 06:18:18 51°27.234 2°40.431 22.2864 0.075983 0.402377 -1.035392
2010-06-30 06:18:24 51°27.252 2°40.41 22.2865 0.068595 0.362074 -1.035392
2010-06-30 06:18:29 51°27.268 2°40.392 22.2875 0.080249 0.425776 -1.035392
2010-06-30 06:18:33 51°27.28 2°40.378 22.2879 0.080249 0.425776 -1.035392
2010-06-30 06:18:38 51°27.296 2°40.361 22.2889 0.081497 0.432642 -1.000568
2010-06-30 06:18:44 51°27.314 2°40.339 22.2896 0.083891 0.445804 -1.035392
2010-06-30 06:18:49 51°27.329 2°40.321 22.2896 0.082018 0.435501 -1.000568
2010-06-30 06:18:53 51°27.342 2°40.307 22.2902 0.090343 0.481385 -1.035392
2010-06-30 06:18:58 51°27.357 2°40.289 22.2909 0.085035 0.452107 -1.000568
2010-06-30 06:19:04 51°27.375 2°40.268 22.2914 0.079208 0.420072 -1.000568
2010-06-30 06:19:09 51°27.39 2°40.25 22.2922 0.079208 0.420072 -1.000568
2010-06-30 06:19:13 51°27.402 2°40.235 22.2927 0.079416 0.421207 -1.000568
2010-06-30 06:19:18 51°27.417 2°40.217 22.2921 0.073173 0.387035 -1.000568
2010-06-30 06:19:24 51°27.436 2°40.196 22.2933 0.072757 0.384756 -1.000568
2010-06-30 06:19:29 51°27.451 2°40.177 22.2937 0.08233 0.437231 -1.000568
2010-06-30 06:19:33 51°27.463 2°40.164 22.2939 0.08233 0.437231 -1.000568
2010-06-30 06:19:38 51°27.479 2°40.146 22.2959 0.082226 0.436652 -0.965744